Time,TemperatureF,DewpointF,PressureIn,WindDirection,WindDirectionDegrees,WindSpeedMPH,WindSpeedGustMPH,Humidity,HourlyPrecipIn,Conditions,Clouds,dailyrainin,SoftwareType,DateUTC
2013-09-20 00:01:00,62.0,61.4,30.07,WNW,291,0.0,0.0,98,0.00,,,0.00,Wunderground v.1.15,2013-09-20 04:01:00,
2013-09-20 00:03:00,62.0,61.4,30.07,WNW,291,0.0,0.0,98,0.00,,,0.00,Wunderground v.1.15,2013-09-20 04:03:00,
2013-09-20 00:04:00,62.0,61.4,30.07,WNW,291,0.0,0.0,98,0.00,,,0.00,Wunderground v.1.15,2013-09-20 04:04:00,
2013-09-20 00:07:00,61.9,61.3,30.07,WNW,291,0.0,0.0,98,0.00,,,0.00,Wunderground v.1.15,2013-09-20 04:07:00,
2013-09-20 00:11:00,61.8,61.2,30.07,WNW,290,0.0,0.0,98,0.00,,,0.00,Wunderground v.1.15,2013-09-20 04:11:00,
2013-09-20 00:12:00,61.8,61.2,30.07,WNW,290,0.0,0.0,98,0.00,,,0.00,Wunderground v.1.15,2013-09-20 04:12:00,
2013-09-20 00:14:00,61.8,61.2,30.07,WNW,290,0.0,0.0,98,0.00,,,0.00,Wunderground v.1.15,2013-09-20 04:14:00,
2013-09-20 00:15:00,61.8,61.2,30.07,WNW,290,0.0,0.0,98,0.00,,,0.00,Wunderground v.1.15,2013-09-20 04:15:00,
2013-09-20 00:16:00,61.8,61.2,30.07,WNW,291,0.0,0.0,98,0.00,,,0.00,Wunderground v.1.15,2013-09-20 04:16:00,
2013-09-20 00:18:00,61.7,61.1,30.07,WNW,290,0.0,0.0,98,0.00,,,0.00,Wunderground v.1.15,2013-09-20 04:18:00,
2013-09-20 00:20:00,61.7,61.1,30.07,WNW,291,0.0,0.0,98,0.00,,,0.00,Wunderground v.1.15,2013-09-20 04:20:00,
2013-09-20 00:21:00,61.6,61.0,30.07,WNW,291,0.0,0.0,98,0.00,,,0.00,Wunderground v.1.15,2013-09-20 04:21:00,
2013-09-20 00:23:00,61.6,61.0,30.07,WNW,290,0.0,0.0,98,0.00,,,0.00,Wunderground v.1.15,2013-09-20 04:23:00,
2013-09-20 00:24:00,61.6,61.0,30.07,WNW,290,0.0,0.0,98,0.00,,,0.00,Wunderground v.1.15,2013-09-20 04:24:00,
2013-09-20 00:25:00,61.6,61.0,30.07,WNW,290,0.0,0.0,98,0.00,,,0.00,Wunderground v.1.15,2013-09-20 04:25:00,
2013-09-20 00:26:00,61.7,61.1,30.07,WNW,291,0.0,0.0,98,0.00,,,0.00,Wunderground v.1.15,2013-09-20 04:26:00,
2013-09-20 00:30:00,61.8,61.2,30.07,WNW,290,0.0,0.0,98,0.00,,,0.00,Wunderground v.1.15,2013-09-20 04:30:00,
2013-09-20 00:32:00,61.7,61.1,30.07,WNW,291,0.0,0.0,98,0.00,,,0.00,Wunderground v.1.15,2013-09-20 04:32:00,
2013-09-20 00:33:00,61.8,61.2,30.08,WNW,290,0.0,0.0,98,0.00,,,0.00,Wunderground v.1.15,2013-09-20 04:33:00,
2013-09-20 00:34:00,61.7,61.1,30.07,WNW,291,0.0,0.0,98,0.00,,,0.00,Wunderground v.1.15,2013-09-20 04:34:00,
2013-09-20 00:37:00,61.7,61.1,30.07,WNW,291,0.0,0.0,98,0.00,,,0.00,Wunderground v.1.15,2013-09-20 04:37:00,
2013-09-20 00:39:00,61.7,61.1,30.07,WNW,291,0.0,0.0,98,0.00,,,0.00,Wunderground v.1.15,2013-09-20 04:39:00,
2013-09-20 00:40:00,61.7,61.1,30.07,WNW,291,0.0,0.0,98,0.00,,,0.00,Wunderground v.1.15,2013-09-20 04:40:00,
2013-09-20 00:41:00,61.7,61.1,30.07,WNW,291,0.0,0.0,98,0.00,,,0.00,Wunderground v.1.15,2013-09-20 04:41:00,
2013-09-20 00:42:00,61.7,61.1,30.07,WNW,291,0.0,0.0,98,0.00,,,0.00,Wunderground v.1.15,2013-09-20 04:42:00,
2013-09-20 00:43:00,61.7,61.1,30.07,WNW,291,0.0,0.0,98,0.00,,,0.00,Wunderground v.1.15,2013-09-20 04:43:00,
2013-09-20 00:44:00,61.7,61.1,30.07,WNW,290,0.0,0.0,98,0.00,,,0.00,Wunderground v.1.15,2013-09-20 04:44:00,
2013-09-20 00:46:00,61.7,61.1,30.07,WNW,291,0.0,0.0,98,0.00,,,0.00,Wunderground v.1.15,2013-09-20 04:46:00,
2013-09-20 00:49:00,61.6,61.0,30.07,WNW,291,0.0,0.0,98,0.00,,,0.00,Wunderground v.1.15,2013-09-20 04:49:00,
2013-09-20 00:50:00,61.6,61.0,30.07,WNW,290,0.0,0.0,98,0.00,,,0.00,Wunderground v.1.15,2013-09-20 04:50:00,
2013-09-20 00:51:00,61.6,61.0,30.07,WNW,290,0.0,0.0,98,0.00,,,0.00,Wunderground v.1.15,2013-09-20 04:51:00,
2013-09-20 00:52:00,61.6,61.0,30.07,WNW,291,0.0,0.0,98,0.00,,,0.00,Wunderground v.1.15,2013-09-20 04:52:00,
2013-09-20 00:55:00,61.5,60.9,30.07,WNW,290,0.0,0.0,98,0.00,,,0.00,Wunderground v.1.15,2013-09-20 04:55:00,
2013-09-20 00:56:00,61.6,61.0,30.07,WNW,291,0.0,0.0,98,0.00,,,0.00,Wunderground v.1.15,2013-09-20 04:56:00,
2013-09-20 00:57:00,61.6,61.0,30.07,WNW,291,0.0,0.0,98,0.00,,,0.00,Wunderground v.1.15,2013-09-20 04:57:00,
2013-09-20 01:01:00,61.6,61.0,30.07,WNW,291,0.0,0.0,98,0.00,,,0.00,Wunderground v.1.15,2013-09-20 05:01:00,
2013-09-20 01:03:00,61.8,61.5,30.07,WNW,291,0.0,0.0,99,0.00,,,0.00,Wunderground v.1.15,2013-09-20 05:03:00,
2013-09-20 01:05:00,61.9,61.6,30.07,WNW,290,0.0,0.0,99,0.00,,,0.00,Wunderground v.1.15,2013-09-20 05:05:00,
2013-09-20 01:06:00,61.9,61.6,30.07,WNW,290,0.0,0.0,99,0.00,,,0.00,Wunderground v.1.15,2013-09-20 05:06:00,
2013-09-20 01:10:00,61.8,61.5,30.07,WNW,291,0.0,0.0,99,0.00,,,0.00,Wunderground v.1.15,2013-09-20 05:10:00,
2013-09-20 01:11:00,61.7,61.4,30.07,WNW,291,0.0,0.0,99,0.00,,,0.00,Wunderground v.1.15,2013-09-20 05:11:00,
2013-09-20 01:12:00,61.7,61.4,30.07,WNW,291,0.0,0.0,99,0.00,,,0.00,Wunderground v.1.15,2013-09-20 05:12:00,
2013-09-20 01:15:00,61.7,61.1,30.07,WNW,291,0.0,0.0,98,0.00,,,0.00,Wunderground v.1.15,2013-09-20 05:15:00,
2013-09-20 01:17:00,61.7,61.1,30.07,WNW,291,0.0,0.0,98,0.00,,,0.00,Wunderground v.1.15,2013-09-20 05:17:00,
2013-09-20 01:18:00,61.7,61.1,30.07,WNW,290,0.0,0.0,98,0.00,,,0.00,Wunderground v.1.15,2013-09-20 05:18:00,
2013-09-20 01:22:00,61.7,61.1,30.07,WNW,290,0.0,0.0,98,0.00,,,0.00,Wunderground v.1.15,2013-09-20 05:22:00,
2013-09-20 01:24:00,61.8,61.2,30.08,WNW,291,0.0,0.0,98,0.00,,,0.00,Wunderground v.1.15,2013-09-20 05:24:00,
2013-09-20 01:25:00,61.8,61.2,30.08,WNW,290,0.0,0.0,98,0.00,,,0.00,Wunderground v.1.15,2013-09-20 05:25:00,
2013-09-20 01:27:00,61.8,61.5,30.08,WNW,291,0.0,0.0,99,0.00,,,0.00,Wunderground v.1.15,2013-09-20 05:27:00,
2013-09-20 01:30:00,61.8,61.5,30.08,WNW,290,0.0,0.0,99,0.00,,,0.00,Wunderground v.1.15,2013-09-20 05:30:00,
2013-09-20 01:31:00,61.8,61.5,30.08,WNW,291,0.0,0.0,99,0.00,,,0.00,Wunderground v.1.15,2013-09-20 05:31:00,
2013-09-20 01:32:00,61.9,61.6,30.07,WNW,291,0.0,0.0,99,0.00,,,0.00,Wunderground v.1.15,2013-09-20 05:32:00,
2013-09-20 01:33:00,61.9,61.6,30.07,WNW,291,0.0,0.0,99,0.00,,,0.00,Wunderground v.1.15,2013-09-20 05:33:00,
2013-09-20 01:36:00,61.9,61.3,30.07,WNW,291,0.0,0.0,98,0.00,,,0.00,Wunderground v.1.15,2013-09-20 05:36:00,
2013-09-20 01:37:00,61.8,61.2,30.07,WNW,291,0.0,0.0,98,0.00,,,0.00,Wunderground v.1.15,2013-09-20 05:37:00,
2013-09-20 01:38:00,61.8,61.2,30.07,WNW,291,0.0,0.0,98,0.00,,,0.00,Wunderground v.1.15,2013-09-20 05:38:00,
2013-09-20 01:41:00,61.8,61.2,30.07,WNW,291,0.0,0.0,98,0.00,,,0.00,Wunderground v.1.15,2013-09-20 05:41:00,
2013-09-20 01:44:00,61.8,61.2,30.07,WNW,290,0.0,0.0,98,0.00,,,0.00,Wunderground v.1.15,2013-09-20 05:44:00,
2013-09-20 01:45:00,61.8,61.2,30.07,WNW,291,0.0,0.0,98,0.00,,,0.00,Wunderground v.1.15,2013-09-20 05:45:00,
2013-09-20 01:50:00,61.8,61.2,30.07,WNW,291,0.0,0.0,98,0.00,,,0.00,Wunderground v.1.15,2013-09-20 05:50:00,
2013-09-20 01:52:00,61.8,61.2,30.07,WNW,291,0.0,0.0,98,0.00,,,0.00,Wunderground v.1.15,2013-09-20 05:52:00,
2013-09-20 01:53:00,61.9,61.3,30.07,WNW,291,0.0,0.0,98,0.00,,,0.00,Wunderground v.1.15,2013-09-20 05:53:00,
2013-09-20 01:54:00,61.9,61.3,30.07,WNW,291,0.0,0.0,98,0.00,,,0.00,Wunderground v.1.15,2013-09-20 05:54:00,
2013-09-20 01:58:00,61.9,61.3,30.07,WNW,291,0.0,0.0,98,0.00,,,0.00,Wunderground v.1.15,2013-09-20 05:58:00,
2013-09-20 01:59:00,61.9,61.3,30.07,WNW,290,0.0,0.0,98,0.00,,,0.00,Wunderground v.1.15,2013-09-20 05:59:00,
2013-09-20 02:00:00,61.9,61.6,30.07,WNW,290,0.0,0.0,99,0.00,,,0.00,Wunderground v.1.15,2013-09-20 06:00:00,
2013-09-20 02:03:00,61.9,61.6,30.07,WNW,290,0.0,0.0,99,0.00,,,0.00,Wunderground v.1.15,2013-09-20 06:03:00,
2013-09-20 02:04:00,61.9,61.6,30.07,WNW,291,0.0,0.0,99,0.00,,,0.00,Wunderground v.1.15,2013-09-20 06:04:00,
2013-09-20 02:05:00,61.9,61.6,30.07,WNW,291,0.0,0.0,99,0.00,,,0.00,Wunderground v.1.15,2013-09-20 06:05:00,
2013-09-20 02:06:00,62.0,61.7,30.07,WNW,290,0.0,0.0,99,0.00,,,0.00,Wunderground v.1.15,2013-09-20 06:06:00,
2013-09-20 02:08:00,61.9,61.6,30.07,WNW,290,0.0,0.0,99,0.00,,,0.00,Wunderground v.1.15,2013-09-20 06:08:00,
2013-09-20 02:09:00,61.9,61.6,30.07,WNW,291,0.0,0.0,99,0.00,,,0.00,Wunderground v.1.15,2013-09-20 06:09:00,
2013-09-20 02:10:00,61.9,61.6,30.07,WNW,291,0.0,0.0,99,0.00,,,0.00,Wunderground v.1.15,2013-09-20 06:10:00,
2013-09-20 02:11:00,62.0,61.7,30.07,WNW,291,0.0,0.0,99,0.00,,,0.00,Wunderground v.1.15,2013-09-20 06:11:00,
2013-09-20 02:13:00,62.0,61.7,30.07,WNW,291,0.0,0.0,99,0.00,,,0.00,Wunderground v.1.15,2013-09-20 06:13:00,
2013-09-20 02:14:00,62.0,61.7,30.07,WNW,291,0.0,0.0,99,0.00,,,0.00,Wunderground v.1.15,2013-09-20 06:14:00,
2013-09-20 02:15:00,62.0,61.7,30.07,WNW,290,0.0,0.0,99,0.00,,,0.00,Wunderground v.1.15,2013-09-20 06:15:00,
2013-09-20 02:16:00,62.0,61.7,30.07,WNW,290,0.0,0.0,99,0.00,,,0.00,Wunderground v.1.15,2013-09-20 06:16:00,
2013-09-20 02:18:00,62.0,61.7,30.06,WNW,290,0.0,0.0,99,0.00,,,0.00,Wunderground v.1.15,2013-09-20 06:18:00,
2013-09-20 02:19:00,62.0,61.7,30.06,WNW,290,0.0,0.0,99,0.00,,,0.00,Wunderground v.1.15,2013-09-20 06:19:00,
2013-09-20 02:20:00,62.0,61.7,30.06,WNW,291,0.0,0.0,99,0.00,,,0.00,Wunderground v.1.15,2013-09-20 06:20:00,
2013-09-20 02:21:00,62.0,61.7,30.06,WNW,291,0.0,0.0,99,0.00,,,0.00,Wunderground v.1.15,2013-09-20 06:21:00,
2013-09-20 02:24:00,62.0,61.7,30.06,WNW,291,0.0,0.0,99,0.00,,,0.00,Wunderground v.1.15,2013-09-20 06:24:00,
2013-09-20 02:26:00,62.0,61.7,30.06,WNW,291,0.0,0.0,99,0.00,,,0.00,Wunderground v.1.15,2013-09-20 06:26:00,
2013-09-20 02:29:00,62.1,61.8,30.07,WNW,291,0.0,0.0,99,0.00,,,0.00,Wunderground v.1.15,2013-09-20 06:29:00,
2013-09-20 02:30:00,62.1,61.8,30.06,WNW,291,0.0,0.0,99,0.00,,,0.00,Wunderground v.1.15,2013-09-20 06:30:00,
2013-09-20 02:31:00,62.1,61.8,30.06,WNW,291,0.0,0.0,99,0.00,,,0.00,Wunderground v.1.15,2013-09-20 06:31:00,
2013-09-20 02:34:00,62.1,61.8,30.06,WNW,291,0.0,0.0,99,0.00,,,0.00,Wunderground v.1.15,2013-09-20 06:34:00,
2013-09-20 02:35:00,62.1,61.8,30.06,WNW,291,0.0,0.0,99,0.00,,,0.00,Wunderground v.1.15,2013-09-20 06:35:00,
2013-09-20 02:36:00,62.1,61.8,30.06,WNW,290,0.0,0.0,99,0.00,,,0.00,Wunderground v.1.15,2013-09-20 06:36:00,
2013-09-20 02:37:00,62.1,61.8,30.06,WNW,291,0.0,0.0,99,0.00,,,0.00,Wunderground v.1.15,2013-09-20 06:37:00,
2013-09-20 02:39:00,62.2,61.9,30.06,WNW,291,0.0,0.0,99,0.00,,,0.00,Wunderground v.1.15,2013-09-20 06:39:00,
2013-09-20 02:40:00,62.2,61.9,30.06,WNW,290,0.0,0.0,99,0.00,,,0.00,Wunderground v.1.15,2013-09-20 06:40:00,
2013-09-20 02:41:00,62.2,61.9,30.06,WNW,291,0.0,0.0,99,0.00,,,0.00,Wunderground v.1.15,2013-09-20 06:41:00,
2013-09-20 02:42:00,62.2,61.9,30.06,WNW,290,0.0,0.0,99,0.00,,,0.00,Wunderground v.1.15,2013-09-20 06:42:00,
2013-09-20 02:44:00,62.2,61.9,30.06,WNW,290,0.0,0.0,99,0.00,,,0.00,Wunderground v.1.15,2013-09-20 06:44:00,
2013-09-20 02:45:00,62.2,61.9,30.06,WNW,291,0.0,0.0,99,0.00,,,0.00,Wunderground v.1.15,2013-09-20 06:45:00,
2013-09-20 02:46:00,62.2,61.9,30.06,WNW,290,0.0,0.0,99,0.00,,,0.00,Wunderground v.1.15,2013-09-20 06:46:00,
2013-09-20 02:47:00,62.2,61.9,30.06,WNW,291,0.0,0.0,99,0.00,,,0.00,Wunderground v.1.15,2013-09-20 06:47:00,
2013-09-20 02:49:00,62.2,61.9,30.06,WNW,290,0.0,0.0,99,0.00,,,0.00,Wunderground v.1.15,2013-09-20 06:49:00,
2013-09-20 02:51:00,62.2,61.9,30.06,WNW,290,0.0,0.0,99,0.00,,,0.00,Wunderground v.1.15,2013-09-20 06:51:00,
2013-09-20 02:52:00,62.2,61.9,30.06,WNW,291,0.0,0.0,99,0.00,,,0.00,Wunderground v.1.15,2013-09-20 06:52:00,
2013-09-20 02:55:00,62.2,61.9,30.06,WNW,291,0.0,0.0,99,0.00,,,0.00,Wunderground v.1.15,2013-09-20 06:55:00,
2013-09-20 02:56:00,62.3,62.0,30.06,WNW,291,0.0,0.0,99,0.00,,,0.00,Wunderground v.1.15,2013-09-20 06:56:00,
2013-09-20 02:57:00,62.3,62.0,30.06,WNW,291,0.0,0.0,99,0.00,,,0.00,Wunderground v.1.15,2013-09-20 06:57:00,
2013-09-20 02:58:00,62.3,62.0,30.06,WNW,291,0.0,0.0,99,0.00,,,0.00,Wunderground v.1.15,2013-09-20 06:58:00,
2013-09-20 03:00:00,62.4,62.1,30.06,WNW,291,0.0,0.0,99,0.00,,,0.00,Wunderground v.1.15,2013-09-20 07:00:00,
2013-09-20 03:01:00,62.4,62.1,30.06,WNW,290,0.0,0.0,99,0.00,,,0.00,Wunderground v.1.15,2013-09-20 07:01:00,
2013-09-20 03:02:00,62.4,62.1,30.06,WNW,291,0.0,0.0,99,0.00,,,0.00,Wunderground v.1.15,2013-09-20 07:02:00,
2013-09-20 03:03:00,62.4,62.1,30.06,WNW,291,0.0,0.0,99,0.00,,,0.00,Wunderground v.1.15,2013-09-20 07:03:00,
2013-09-20 03:05:00,62.4,62.1,30.06,WNW,291,0.0,0.0,99,0.00,,,0.00,Wunderground v.1.15,2013-09-20 07:05:00,
2013-09-20 03:06:00,62.4,62.1,30.06,WNW,291,0.0,0.0,99,0.00,,,0.00,Wunderground v.1.15,2013-09-20 07:06:00,
2013-09-20 03:07:00,62.4,62.1,30.06,WNW,290,0.0,0.0,99,0.00,,,0.00,Wunderground v.1.15,2013-09-20 07:07:00,
2013-09-20 03:08:00,62.4,62.1,30.05,WNW,290,0.0,0.0,99,0.00,,,0.00,Wunderground v.1.15,2013-09-20 07:08:00,
2013-09-20 03:09:00,62.4,62.1,30.06,WNW,291,0.0,0.0,99,0.00,,,0.00,Wunderground v.1.15,2013-09-20 07:09:00,
2013-09-20 03:10:00,62.4,62.1,30.06,WNW,291,0.0,0.0,99,0.00,,,0.00,Wunderground v.1.15,2013-09-20 07:10:00,
2013-09-20 03:11:00,62.4,62.1,30.06,WNW,291,0.0,0.0,99,0.00,,,0.00,Wunderground v.1.15,2013-09-20 07:11:00,
2013-09-20 03:12:00,62.4,62.1,30.06,WNW,290,0.0,0.0,99,0.00,,,0.00,Wunderground v.1.15,2013-09-20 07:12:00,
2013-09-20 03:13:00,62.4,62.1,30.05,WNW,290,0.0,0.0,99,0.00,,,0.00,Wunderground v.1.15,2013-09-20 07:13:00,
2013-09-20 03:14:00,62.4,62.1,30.05,WNW,291,0.0,0.0,99,0.00,,,0.00,Wunderground v.1.15,2013-09-20 07:14:00,
2013-09-20 03:15:00,62.4,62.1,30.06,WNW,290,0.0,0.0,99,0.00,,,0.00,Wunderground v.1.15,2013-09-20 07:15:00,
2013-09-20 03:16:00,62.4,62.1,30.05,WNW,290,0.0,0.0,99,0.00,,,0.00,Wunderground v.1.15,2013-09-20 07:16:00,
2013-09-20 03:17:00,62.4,62.1,30.06,WNW,290,0.0,0.0,99,0.00,,,0.00,Wunderground v.1.15,2013-09-20 07:17:00,
2013-09-20 03:18:00,62.3,62.0,30.05,WNW,290,0.0,0.0,99,0.00,,,0.00,Wunderground v.1.15,2013-09-20 07:18:00,
2013-09-20 03:19:00,62.4,62.1,30.05,WNW,291,0.0,0.0,99,0.00,,,0.00,Wunderground v.1.15,2013-09-20 07:19:00,
2013-09-20 03:20:00,62.3,62.0,30.05,WNW,291,0.0,0.0,99,0.00,,,0.00,Wunderground v.1.15,2013-09-20 07:20:00,
2013-09-20 03:21:00,62.3,62.0,30.05,WNW,291,0.0,0.0,99,0.00,,,0.00,Wunderground v.1.15,2013-09-20 07:21:00,
2013-09-20 03:22:00,62.4,62.1,30.05,WNW,291,0.0,0.0,99,0.00,,,0.00,Wunderground v.1.15,2013-09-20 07:22:00,
2013-09-20 03:23:00,62.4,62.1,30.05,WNW,290,0.0,0.0,99,0.00,,,0.00,Wunderground v.1.15,2013-09-20 07:23:00,
2013-09-20 03:24:00,62.3,62.0,30.05,WNW,291,0.0,0.0,99,0.00,,,0.00,Wunderground v.1.15,2013-09-20 07:24:00,
2013-09-20 03:25:00,62.3,62.0,30.05,WNW,291,0.0,0.0,99,0.00,,,0.00,Wunderground v.1.15,2013-09-20 07:25:00,
2013-09-20 03:26:00,62.3,62.0,30.05,WNW,291,0.0,0.0,99,0.00,,,0.00,Wunderground v.1.15,2013-09-20 07:26:00,
2013-09-20 03:27:00,62.3,62.0,30.05,WNW,290,0.0,0.0,99,0.00,,,0.00,Wunderground v.1.15,2013-09-20 07:27:00,
2013-09-20 03:29:00,62.4,62.1,30.05,WNW,290,0.0,0.0,99,0.00,,,0.00,Wunderground v.1.15,2013-09-20 07:29:00,
2013-09-20 03:30:00,62.4,62.1,30.05,WNW,290,0.0,0.0,99,0.00,,,0.00,Wunderground v.1.15,2013-09-20 07:30:00,
2013-09-20 03:31:00,62.4,62.1,30.05,WNW,291,0.0,0.0,99,0.00,,,0.00,Wunderground v.1.15,2013-09-20 07:31:00,
2013-09-20 03:32:00,62.4,62.1,30.05,WNW,291,0.0,0.0,99,0.00,,,0.00,Wunderground v.1.15,2013-09-20 07:32:00,
2013-09-20 03:35:00,62.4,62.1,30.05,WNW,291,0.0,0.0,99,0.00,,,0.00,Wunderground v.1.15,2013-09-20 07:35:00,
2013-09-20 03:36:00,62.4,62.1,30.05,WNW,291,0.0,0.0,99,0.00,,,0.00,Wunderground v.1.15,2013-09-20 07:36:00,
2013-09-20 03:37:00,62.4,62.1,30.05,WNW,291,0.0,0.0,99,0.00,,,0.00,Wunderground v.1.15,2013-09-20 07:37:00,
2013-09-20 03:38:00,62.4,62.1,30.05,WNW,290,0.0,0.0,99,0.00,,,0.00,Wunderground v.1.15,2013-09-20 07:38:00,
2013-09-20 03:41:00,62.3,62.0,30.05,WNW,290,0.0,0.0,99,0.00,,,0.00,Wunderground v.1.15,2013-09-20 07:41:00,
2013-09-20 03:42:00,62.3,62.0,30.05,WNW,291,0.0,0.0,99,0.00,,,0.00,Wunderground v.1.15,2013-09-20 07:42:00,
2013-09-20 03:43:00,62.3,62.0,30.05,WNW,290,0.0,0.0,99,0.00,,,0.00,Wunderground v.1.15,2013-09-20 07:43:00,
2013-09-20 03:46:00,62.3,62.0,30.05,WNW,290,0.0,0.0,99,0.00,,,0.00,Wunderground v.1.15,2013-09-20 07:46:00,
2013-09-20 03:47:00,62.3,62.0,30.05,WNW,290,0.0,0.0,99,0.00,,,0.00,Wunderground v.1.15,2013-09-20 07:47:00,
2013-09-20 03:49:00,62.3,62.0,30.05,WNW,291,0.0,0.0,99,0.00,,,0.00,Wunderground v.1.15,2013-09-20 07:49:00,
2013-09-20 03:51:00,62.3,62.0,30.05,WNW,290,0.0,0.0,99,0.00,,,0.00,Wunderground v.1.15,2013-09-20 07:51:00,
2013-09-20 03:52:00,62.3,62.0,30.05,WNW,291,0.0,0.0,99,0.00,,,0.00,Wunderground v.1.15,2013-09-20 07:52:00,
2013-09-20 03:53:00,62.3,62.0,30.05,WNW,291,0.0,0.0,99,0.00,,,0.00,Wunderground v.1.15,2013-09-20 07:53:00,
2013-09-20 03:54:00,62.2,61.9,30.05,WNW,291,0.0,0.0,99,0.00,,,0.00,Wunderground v.1.15,2013-09-20 07:54:00,
2013-09-20 03:56:00,62.2,61.9,30.05,WNW,291,0.0,0.0,99,0.00,,,0.00,Wunderground v.1.15,2013-09-20 07:56:00,
2013-09-20 03:57:00,62.2,61.9,30.05,WNW,290,0.0,0.0,99,0.00,,,0.00,Wunderground v.1.15,2013-09-20 07:57:00,
2013-09-20 03:59:00,62.1,61.8,30.05,WNW,291,0.0,0.0,99,0.00,,,0.00,Wunderground v.1.15,2013-09-20 07:59:00,
2013-09-20 04:01:00,62.1,61.8,30.05,WNW,290,0.0,0.0,99,0.00,,,0.00,Wunderground v.1.15,2013-09-20 08:01:00,
2013-09-20 04:02:00,62.1,61.8,30.05,WNW,291,0.0,0.0,99,0.00,,,0.00,Wunderground v.1.15,2013-09-20 08:02:00,
2013-09-20 04:04:00,62.0,61.7,30.04,WNW,290,0.0,0.0,99,0.00,,,0.00,Wunderground v.1.15,2013-09-20 08:04:00,
2013-09-20 04:06:00,62.0,61.7,30.04,WNW,290,0.0,0.0,99,0.00,,,0.00,Wunderground v.1.15,2013-09-20 08:06:00,
2013-09-20 04:07:00,61.9,61.6,30.04,WNW,291,0.0,0.0,99,0.00,,,0.00,Wunderground v.1.15,2013-09-20 08:07:00,
2013-09-20 04:09:00,61.9,61.6,30.04,WNW,290,0.0,0.0,99,0.00,,,0.00,Wunderground v.1.15,2013-09-20 08:09:00,
2013-09-20 04:11:00,61.8,61.5,30.04,WNW,290,0.0,0.0,99,0.00,,,0.00,Wunderground v.1.15,2013-09-20 08:11:00,
2013-09-20 04:12:00,61.8,61.5,30.04,WNW,291,0.0,0.0,99,0.00,,,0.00,Wunderground v.1.15,2013-09-20 08:12:00,
2013-09-20 04:14:00,61.8,61.5,30.04,WNW,290,0.0,0.0,99,0.00,,,0.00,Wunderground v.1.15,2013-09-20 08:14:00,
2013-09-20 04:15:00,61.8,61.5,30.04,WNW,291,0.0,0.0,99,0.00,,,0.00,Wunderground v.1.15,2013-09-20 08:15:00,
2013-09-20 04:16:00,61.8,61.5,30.04,WNW,290,0.0,0.0,99,0.00,,,0.00,Wunderground v.1.15,2013-09-20 08:16:00,
2013-09-20 04:17:00,61.8,61.5,30.04,WNW,291,0.0,0.0,99,0.00,,,0.00,Wunderground v.1.15,2013-09-20 08:17:00,
2013-09-20 04:18:00,61.8,61.5,30.04,WNW,290,0.0,0.0,99,0.00,,,0.00,Wunderground v.1.15,2013-09-20 08:18:00,
2013-09-20 04:19:00,61.7,61.4,30.04,WNW,290,0.0,0.0,99,0.00,,,0.00,Wunderground v.1.15,2013-09-20 08:19:00,
2013-09-20 04:20:00,61.7,61.4,30.04,WNW,290,0.0,0.0,99,0.00,,,0.00,Wunderground v.1.15,2013-09-20 08:20:00,
2013-09-20 04:22:00,61.6,61.3,30.04,WNW,290,0.0,0.0,99,0.00,,,0.00,Wunderground v.1.15,2013-09-20 08:22:00,
2013-09-20 04:23:00,61.6,61.3,30.04,WNW,291,0.0,0.0,99,0.00,,,0.00,Wunderground v.1.15,2013-09-20 08:23:00,
2013-09-20 04:24:00,61.6,61.3,30.04,WNW,290,0.0,0.0,99,0.00,,,0.00,Wunderground v.1.15,2013-09-20 08:24:00,
2013-09-20 04:25:00,61.6,61.3,30.04,WNW,291,0.0,0.0,99,0.00,,,0.00,Wunderground v.1.15,2013-09-20 08:25:00,
2013-09-20 04:27:00,61.6,61.3,30.04,WNW,291,0.0,0.0,99,0.00,,,0.00,Wunderground v.1.15,2013-09-20 08:27:00,
2013-09-20 04:28:00,61.6,61.3,30.04,WNW,291,0.0,0.0,99,0.00,,,0.00,Wunderground v.1.15,2013-09-20 08:28:00,
2013-09-20 04:30:00,61.6,61.3,30.04,WNW,291,0.0,0.0,99,0.00,,,0.00,Wunderground v.1.15,2013-09-20 08:30:00,
2013-09-20 04:32:00,61.5,61.2,30.04,WNW,290,0.0,0.0,99,0.00,,,0.00,Wunderground v.1.15,2013-09-20 08:32:00,
2013-09-20 04:33:00,61.5,61.2,30.04,WNW,290,0.0,0.0,99,0.00,,,0.00,Wunderground v.1.15,2013-09-20 08:33:00,
2013-09-20 04:35:00,61.5,61.2,30.04,WNW,291,0.0,0.0,99,0.00,,,0.00,Wunderground v.1.15,2013-09-20 08:35:00,
2013-09-20 04:37:00,61.4,61.1,30.04,WNW,291,0.0,0.0,99,0.00,,,0.00,Wunderground v.1.15,2013-09-20 08:37:00,
2013-09-20 04:38:00,61.3,61.0,30.04,WNW,290,0.0,0.0,99,0.00,,,0.00,Wunderground v.1.15,2013-09-20 08:38:00,
2013-09-20 04:39:00,61.3,61.0,30.04,WNW,291,0.0,0.0,99,0.00,,,0.00,Wunderground v.1.15,2013-09-20 08:39:00,
2013-09-20 04:40:00,61.3,61.0,30.04,WNW,291,0.0,0.0,99,0.00,,,0.00,Wunderground v.1.15,2013-09-20 08:40:00,
2013-09-20 04:41:00,61.3,61.0,30.04,WNW,291,0.0,0.0,99,0.00,,,0.00,Wunderground v.1.15,2013-09-20 08:41:00,
2013-09-20 04:42:00,61.3,61.0,30.04,WNW,291,0.0,0.0,99,0.00,,,0.00,Wunderground v.1.15,2013-09-20 08:42:00,
2013-09-20 04:44:00,61.3,61.0,30.04,WNW,290,0.0,0.0,99,0.00,,,0.00,Wunderground v.1.15,2013-09-20 08:44:00,
2013-09-20 04:45:00,61.3,61.0,30.04,WNW,290,0.0,0.0,99,0.00,,,0.00,Wunderground v.1.15,2013-09-20 08:45:00,
2013-09-20 04:46:00,61.3,61.0,30.04,WNW,291,0.0,0.0,99,0.00,,,0.00,Wunderground v.1.15,2013-09-20 08:46:00,
2013-09-20 04:47:00,61.3,61.0,30.04,WNW,290,0.0,0.0,99,0.00,,,0.00,Wunderground v.1.15,2013-09-20 08:47:00,
2013-09-20 04:49:00,61.3,61.0,30.04,WNW,291,0.0,0.0,99,0.00,,,0.00,Wunderground v.1.15,2013-09-20 08:49:00,
2013-09-20 04:50:00,61.3,61.0,30.04,WNW,290,0.0,0.0,99,0.00,,,0.00,Wunderground v.1.15,2013-09-20 08:50:00,
2013-09-20 04:51:00,61.3,61.0,30.04,WNW,291,0.0,0.0,99,0.00,,,0.00,Wunderground v.1.15,2013-09-20 08:51:00,
2013-09-20 04:53:00,61.2,60.9,30.04,WNW,291,0.0,0.0,99,0.00,,,0.00,Wunderground v.1.15,2013-09-20 08:53:00,
2013-09-20 04:54:00,61.2,60.9,30.04,WNW,290,0.0,0.0,99,0.00,,,0.00,Wunderground v.1.15,2013-09-20 08:54:00,
2013-09-20 04:55:00,61.2,60.9,30.04,WNW,291,0.0,0.0,99,0.00,,,0.00,Wunderground v.1.15,2013-09-20 08:55:00,
2013-09-20 04:56:00,61.2,60.9,30.04,WNW,290,0.0,0.0,99,0.00,,,0.00,Wunderground v.1.15,2013-09-20 08:56:00,
2013-09-20 04:58:00,61.1,60.8,30.04,WNW,290,0.0,0.0,99,0.00,,,0.00,Wunderground v.1.15,2013-09-20 08:58:00,
2013-09-20 04:59:00,61.1,60.8,30.04,WNW,291,0.0,0.0,99,0.00,,,0.00,Wunderground v.1.15,2013-09-20 08:59:00,
2013-09-20 05:00:00,61.1,60.8,30.04,WNW,291,0.0,0.0,99,0.00,,,0.00,Wunderground v.1.15,2013-09-20 09:00:00,
2013-09-20 05:01:00,61.1,60.8,30.04,WNW,290,0.0,0.0,99,0.00,,,0.00,Wunderground v.1.15,2013-09-20 09:01:00,
2013-09-20 05:02:00,61.1,60.8,30.04,WNW,290,0.0,0.0,99,0.00,,,0.00,Wunderground v.1.15,2013-09-20 09:02:00,
2013-09-20 05:03:00,61.1,60.8,30.04,WNW,290,0.0,0.0,99,0.00,,,0.00,Wunderground v.1.15,2013-09-20 09:03:00,
2013-09-20 05:04:00,61.0,60.7,30.04,WNW,291,0.0,0.0,99,0.00,,,0.00,Wunderground v.1.15,2013-09-20 09:04:00,
2013-09-20 05:05:00,61.0,60.7,30.04,WNW,290,0.0,0.0,99,0.00,,,0.00,Wunderground v.1.15,2013-09-20 09:05:00,
2013-09-20 05:06:00,61.0,60.7,30.04,WNW,291,0.0,0.0,99,0.00,,,0.00,Wunderground v.1.15,2013-09-20 09:06:00,
2013-09-20 05:07:00,61.0,60.7,30.04,WNW,291,0.0,0.0,99,0.00,,,0.00,Wunderground v.1.15,2013-09-20 09:07:00,
2013-09-20 05:08:00,61.0,60.7,30.04,WNW,291,0.0,0.0,99,0.00,,,0.00,Wunderground v.1.15,2013-09-20 09:08:00,
2013-09-20 05:10:00,61.1,60.8,30.04,WNW,290,0.0,0.0,99,0.00,,,0.00,Wunderground v.1.15,2013-09-20 09:10:00,
2013-09-20 05:11:00,61.1,60.8,30.04,WNW,291,0.0,0.0,99,0.00,,,0.00,Wunderground v.1.15,2013-09-20 09:11:00,
2013-09-20 05:12:00,61.0,60.7,30.04,WNW,290,0.0,0.0,99,0.00,,,0.00,Wunderground v.1.15,2013-09-20 09:12:00,
2013-09-20 05:13:00,61.0,60.7,30.04,WNW,290,0.0,0.0,99,0.00,,,0.00,Wunderground v.1.15,2013-09-20 09:13:00,
2013-09-20 05:15:00,60.9,60.6,30.04,WNW,291,0.0,0.0,99,0.00,,,0.00,Wunderground v.1.15,2013-09-20 09:15:00,
2013-09-20 05:16:00,60.9,60.6,30.04,WNW,291,0.0,0.0,99,0.00,,,0.00,Wunderground v.1.15,2013-09-20 09:16:00,
2013-09-20 05:17:00,60.8,60.5,30.04,WNW,290,0.0,0.0,99,0.00,,,0.00,Wunderground v.1.15,2013-09-20 09:17:00,
2013-09-20 05:18:00,60.8,60.5,30.04,WNW,290,0.0,0.0,99,0.00,,,0.00,Wunderground v.1.15,2013-09-20 09:18:00,
2013-09-20 05:21:00,60.8,60.5,30.04,WNW,290,0.0,0.0,99,0.00,,,0.00,Wunderground v.1.15,2013-09-20 09:21:00,
2013-09-20 05:23:00,60.8,60.5,30.04,WNW,290,0.0,0.0,99,0.00,,,0.00,Wunderground v.1.15,2013-09-20 09:23:00,
2013-09-20 05:26:00,60.8,60.5,30.04,WNW,291,0.0,0.0,99,0.00,,,0.00,Wunderground v.1.15,2013-09-20 09:26:00,
2013-09-20 05:27:00,60.8,60.5,30.04,WNW,291,0.0,0.0,99,0.00,,,0.00,Wunderground v.1.15,2013-09-20 09:27:00,
2013-09-20 05:28:00,60.8,60.5,30.04,WNW,291,0.0,0.0,99,0.00,,,0.00,Wunderground v.1.15,2013-09-20 09:28:00,
2013-09-20 05:31:00,60.7,60.4,30.04,WNW,291,0.0,0.0,99,0.00,,,0.00,Wunderground v.1.15,2013-09-20 09:31:00,
2013-09-20 05:32:00,60.7,60.4,30.04,WNW,291,0.0,0.0,99,0.00,,,0.00,Wunderground v.1.15,2013-09-20 09:32:00,
2013-09-20 05:33:00,60.7,60.4,30.04,WNW,291,0.0,0.0,99,0.00,,,0.00,Wunderground v.1.15,2013-09-20 09:33:00,
2013-09-20 05:36:00,60.7,60.4,30.04,WNW,291,0.0,0.0,99,0.00,,,0.00,Wunderground v.1.15,2013-09-20 09:36:00,
2013-09-20 05:37:00,60.7,60.4,30.04,WNW,290,0.0,0.0,99,0.00,,,0.00,Wunderground v.1.15,2013-09-20 09:37:00,
2013-09-20 05:38:00,60.7,60.4,30.04,WNW,291,0.0,0.0,99,0.00,,,0.00,Wunderground v.1.15,2013-09-20 09:38:00,
2013-09-20 05:39:00,60.7,60.4,30.04,WNW,290,0.0,0.0,99,0.00,,,0.00,Wunderground v.1.15,2013-09-20 09:39:00,
2013-09-20 05:41:00,60.7,60.4,30.04,WNW,290,0.0,0.0,99,0.00,,,0.00,Wunderground v.1.15,2013-09-20 09:41:00,
2013-09-20 05:42:00,60.7,60.4,30.04,WNW,291,0.0,0.0,99,0.00,,,0.00,Wunderground v.1.15,2013-09-20 09:42:00,
2013-09-20 05:43:00,60.7,60.4,30.04,WNW,290,0.0,0.0,99,0.00,,,0.00,Wunderground v.1.15,2013-09-20 09:43:00,
2013-09-20 05:44:00,60.7,60.4,30.04,WNW,291,0.0,0.0,99,0.00,,,0.00,Wunderground v.1.15,2013-09-20 09:44:00,
2013-09-20 05:47:00,60.7,60.4,30.04,WNW,290,0.0,0.0,99,0.00,,,0.00,Wunderground v.1.15,2013-09-20 09:47:00,
2013-09-20 05:48:00,60.7,60.4,30.04,WNW,291,0.0,0.0,99,0.00,,,0.00,Wunderground v.1.15,2013-09-20 09:48:00,
2013-09-20 05:49:00,60.7,60.4,30.04,WNW,290,0.0,0.0,99,0.00,,,0.00,Wunderground v.1.15,2013-09-20 09:49:00,
2013-09-20 05:52:00,60.7,60.4,30.04,WNW,291,0.0,0.0,99,0.00,,,0.00,Wunderground v.1.15,2013-09-20 09:52:00,
2013-09-20 05:53:00,60.7,60.4,30.04,WNW,290,0.0,0.0,99,0.00,,,0.00,Wunderground v.1.15,2013-09-20 09:53:00,
2013-09-20 05:54:00,60.7,60.4,30.04,WNW,290,0.0,0.0,99,0.00,,,0.00,Wunderground v.1.15,2013-09-20 09:54:00,
2013-09-20 05:57:00,60.7,60.4,30.04,WNW,291,0.0,0.0,99,0.00,,,0.00,Wunderground v.1.15,2013-09-20 09:57:00,
2013-09-20 05:58:00,60.7,60.4,30.04,WNW,291,0.0,0.0,99,0.00,,,0.00,Wunderground v.1.15,2013-09-20 09:58:00,
2013-09-20 05:59:00,60.7,60.4,30.04,WNW,290,0.0,0.0,99,0.00,,,0.00,Wunderground v.1.15,2013-09-20 09:59:00,
2013-09-20 06:02:00,60.7,60.4,30.04,WNW,291,0.0,0.0,99,0.00,,,0.00,Wunderground v.1.15,2013-09-20 10:02:00,
2013-09-20 06:03:00,60.7,60.4,30.04,WNW,291,0.0,0.0,99,0.00,,,0.00,Wunderground v.1.15,2013-09-20 10:03:00,
2013-09-20 06:04:00,60.7,60.4,30.05,WNW,290,0.0,0.0,99,0.00,,,0.00,Wunderground v.1.15,2013-09-20 10:04:00,
2013-09-20 06:07:00,60.7,60.4,30.04,WNW,291,0.0,0.0,99,0.00,,,0.00,Wunderground v.1.15,2013-09-20 10:07:00,
2013-09-20 06:09:00,60.6,60.3,30.04,WNW,290,0.0,0.0,99,0.00,,,0.00,Wunderground v.1.15,2013-09-20 10:09:00,
2013-09-20 06:12:00,60.7,60.4,30.04,WNW,290,0.0,0.0,99,0.00,,,0.00,Wunderground v.1.15,2013-09-20 10:12:00,
2013-09-20 06:14:00,60.7,60.4,30.04,WNW,290,0.0,0.0,99,0.00,,,0.00,Wunderground v.1.15,2013-09-20 10:14:00,
2013-09-20 06:17:00,60.7,60.4,30.04,WNW,291,0.0,0.0,99,0.00,,,0.00,Wunderground v.1.15,2013-09-20 10:17:00,
2013-09-20 06:19:00,60.7,60.4,30.04,WNW,290,0.0,0.0,99,0.00,,,0.00,Wunderground v.1.15,2013-09-20 10:19:00,
2013-09-20 06:20:00,60.7,60.4,30.04,WNW,290,0.0,0.0,99,0.00,,,0.00,Wunderground v.1.15,2013-09-20 10:20:00,
2013-09-20 06:22:00,60.7,60.4,30.04,WNW,291,0.0,0.0,99,0.00,,,0.00,Wunderground v.1.15,2013-09-20 10:22:00,
2013-09-20 06:24:00,60.7,60.4,30.04,WNW,291,0.0,0.0,99,0.00,,,0.00,Wunderground v.1.15,2013-09-20 10:24:00,
2013-09-20 06:25:00,60.7,60.4,30.04,WNW,290,0.0,0.0,99,0.00,,,0.00,Wunderground v.1.15,2013-09-20 10:25:00,
2013-09-20 06:27:00,60.8,60.5,30.05,WNW,291,0.0,0.0,99,0.00,,,0.00,Wunderground v.1.15,2013-09-20 10:27:00,
2013-09-20 06:29:00,60.9,60.6,30.05,WNW,291,0.0,0.0,99,0.00,,,0.00,Wunderground v.1.15,2013-09-20 10:29:00,
2013-09-20 06:30:00,60.9,60.6,30.05,WNW,290,0.0,0.0,99,0.00,,,0.00,Wunderground v.1.15,2013-09-20 10:30:00,
2013-09-20 06:31:00,60.9,60.6,30.05,WNW,290,0.0,0.0,99,0.00,,,0.00,Wunderground v.1.15,2013-09-20 10:31:00,
2013-09-20 06:32:00,60.9,60.6,30.05,WNW,290,0.0,0.0,99,0.00,,,0.00,Wunderground v.1.15,2013-09-20 10:32:00,
2013-09-20 06:34:00,60.9,60.6,30.05,WNW,290,0.0,0.0,99,0.00,,,0.00,Wunderground v.1.15,2013-09-20 10:34:00,
2013-09-20 06:35:00,60.9,60.6,30.05,WNW,290,0.0,0.0,99,0.00,,,0.00,Wunderground v.1.15,2013-09-20 10:35:00,
2013-09-20 06:36:00,60.9,60.6,30.05,WNW,290,0.0,0.0,99,0.00,,,0.00,Wunderground v.1.15,2013-09-20 10:36:00,
2013-09-20 06:37:00,61.0,60.7,30.05,WNW,291,0.0,0.0,99,0.00,,,0.00,Wunderground v.1.15,2013-09-20 10:37:00,
2013-09-20 06:40:00,61.0,60.7,30.05,WNW,290,0.0,0.0,99,0.00,,,0.00,Wunderground v.1.15,2013-09-20 10:40:00,
2013-09-20 06:41:00,61.0,60.7,30.05,WNW,291,0.0,0.0,99,0.00,,,0.00,Wunderground v.1.15,2013-09-20 10:41:00,
2013-09-20 06:42:00,61.0,60.7,30.05,WNW,290,0.0,0.0,99,0.00,,,0.00,Wunderground v.1.15,2013-09-20 10:42:00,
2013-09-20 06:45:00,61.1,60.8,30.05,WNW,290,0.0,0.0,99,0.00,,,0.00,Wunderground v.1.15,2013-09-20 10:45:00,
2013-09-20 06:46:00,61.1,60.8,30.05,WNW,290,0.0,0.0,99,0.00,,,0.00,Wunderground v.1.15,2013-09-20 10:46:00,
2013-09-20 06:48:00,61.1,60.8,30.05,WNW,291,0.0,0.0,99,0.00,,,0.00,Wunderground v.1.15,2013-09-20 10:48:00,
2013-09-20 06:50:00,61.1,60.8,30.05,WNW,291,0.0,0.0,99,0.00,,,0.00,Wunderground v.1.15,2013-09-20 10:50:00,
2013-09-20 06:51:00,61.1,60.8,30.05,WNW,290,0.0,0.0,99,0.00,,,0.00,Wunderground v.1.15,2013-09-20 10:51:00,
2013-09-20 06:53:00,61.2,60.9,30.05,WNW,290,0.0,0.0,99,0.00,,,0.00,Wunderground v.1.15,2013-09-20 10:53:00,
2013-09-20 06:55:00,61.2,60.9,30.05,WNW,291,0.0,0.0,99,0.00,,,0.00,Wunderground v.1.15,2013-09-20 10:55:00,
2013-09-20 06:57:00,61.2,60.9,30.05,WNW,290,0.0,0.0,99,0.00,,,0.00,Wunderground v.1.15,2013-09-20 10:57:00,
2013-09-20 06:59:00,61.4,61.1,30.04,WNW,290,0.0,0.0,99,0.00,,,0.00,Wunderground v.1.15,2013-09-20 10:59:00,
2013-09-20 07:00:00,61.4,61.1,30.04,WNW,290,0.0,0.0,99,0.00,,,0.00,Wunderground v.1.15,2013-09-20 11:00:00,
2013-09-20 07:02:00,61.5,61.2,30.04,WNW,290,0.0,0.0,99,0.00,,,0.00,Wunderground v.1.15,2013-09-20 11:02:00,
2013-09-20 07:04:00,61.6,61.3,30.04,WNW,291,0.0,0.0,99,0.00,,,0.00,Wunderground v.1.15,2013-09-20 11:04:00,
2013-09-20 07:05:00,61.5,61.2,30.04,WNW,290,0.0,0.0,99,0.00,,,0.00,Wunderground v.1.15,2013-09-20 11:05:00,
2013-09-20 07:07:00,61.6,61.3,30.04,WNW,291,0.0,0.0,99,0.00,,,0.00,Wunderground v.1.15,2013-09-20 11:07:00,
2013-09-20 07:09:00,61.5,61.2,30.04,WNW,290,0.0,0.0,99,0.00,,,0.00,Wunderground v.1.15,2013-09-20 11:09:00,
2013-09-20 07:10:00,61.5,61.2,30.05,WNW,291,0.0,0.0,99,0.00,,,0.00,Wunderground v.1.15,2013-09-20 11:10:00,
2013-09-20 07:12:00,61.5,61.2,30.05,WNW,290,0.0,0.0,99,0.00,,,0.00,Wunderground v.1.15,2013-09-20 11:12:00,
2013-09-20 07:14:00,61.5,61.2,30.05,WNW,291,0.0,0.0,99,0.00,,,0.00,Wunderground v.1.15,2013-09-20 11:14:00,
2013-09-20 07:16:00,61.5,61.2,30.05,WNW,290,0.0,0.0,99,0.00,,,0.00,Wunderground v.1.15,2013-09-20 11:16:00,
2013-09-20 07:17:00,61.5,61.2,30.05,WNW,290,0.0,0.0,99,0.00,,,0.00,Wunderground v.1.15,2013-09-20 11:17:00,
2013-09-20 07:20:00,61.5,61.2,30.05,WNW,291,0.0,0.0,99,0.00,,,0.00,Wunderground v.1.15,2013-09-20 11:20:00,
2013-09-20 07:21:00,61.5,61.2,30.05,WNW,290,0.0,0.0,99,0.00,,,0.00,Wunderground v.1.15,2013-09-20 11:21:00,
2013-09-20 07:22:00,61.5,61.2,30.05,WNW,290,0.0,0.0,99,0.00,,,0.00,Wunderground v.1.15,2013-09-20 11:22:00,
2013-09-20 07:25:00,61.5,61.2,30.05,WNW,290,0.0,0.0,99,0.00,,,0.00,Wunderground v.1.15,2013-09-20 11:25:00,
2013-09-20 07:26:00,61.6,61.3,30.05,WNW,290,0.0,0.0,99,0.00,,,0.00,Wunderground v.1.15,2013-09-20 11:26:00,
2013-09-20 07:27:00,61.6,61.3,30.05,WNW,290,0.0,0.0,99,0.00,,,0.00,Wunderground v.1.15,2013-09-20 11:27:00,
2013-09-20 07:30:00,61.6,61.3,30.05,WNW,290,0.0,0.0,99,0.00,,,0.00,Wunderground v.1.15,2013-09-20 11:30:00,
2013-09-20 07:31:00,61.6,61.3,30.05,WNW,290,0.0,0.0,99,0.00,,,0.00,Wunderground v.1.15,2013-09-20 11:31:00,
2013-09-20 07:32:00,61.7,61.4,30.05,WNW,291,0.0,0.0,99,0.00,,,0.00,Wunderground v.1.15,2013-09-20 11:32:00,
2013-09-20 07:34:00,61.7,61.4,30.05,WNW,290,0.0,0.0,99,0.00,,,0.00,Wunderground v.1.15,2013-09-20 11:34:00,
2013-09-20 07:35:00,61.7,61.4,30.05,WNW,290,0.0,0.0,99,0.00,,,0.00,Wunderground v.1.15,2013-09-20 11:35:00,
2013-09-20 07:36:00,61.7,61.4,30.05,WNW,291,0.0,0.0,99,0.00,,,0.00,Wunderground v.1.15,2013-09-20 11:36:00,
2013-09-20 07:38:00,61.7,61.4,30.05,WNW,290,0.0,0.0,99,0.00,,,0.00,Wunderground v.1.15,2013-09-20 11:38:00,
2013-09-20 07:39:00,61.8,61.5,30.05,WNW,290,0.0,0.0,99,0.00,,,0.00,Wunderground v.1.15,2013-09-20 11:39:00,
2013-09-20 07:40:00,61.8,61.5,30.05,WNW,290,0.0,0.0,99,0.00,,,0.00,Wunderground v.1.15,2013-09-20 11:40:00,
2013-09-20 07:41:00,61.8,61.5,30.05,WNW,290,0.0,0.0,99,0.00,,,0.00,Wunderground v.1.15,2013-09-20 11:41:00,
2013-09-20 07:43:00,61.9,61.6,30.05,WNW,291,0.0,0.0,99,0.00,,,0.00,Wunderground v.1.15,2013-09-20 11:43:00,
2013-09-20 07:45:00,61.9,61.6,30.05,WNW,291,0.0,0.0,99,0.00,,,0.00,Wunderground v.1.15,2013-09-20 11:45:00,
2013-09-20 07:46:00,61.9,61.6,30.05,WNW,290,0.0,0.0,99,0.00,,,0.00,Wunderground v.1.15,2013-09-20 11:46:00,
2013-09-20 07:49:00,61.9,61.6,30.05,WNW,291,0.0,0.0,99,0.00,,,0.00,Wunderground v.1.15,2013-09-20 11:49:00,
2013-09-20 07:50:00,62.0,61.7,30.05,WNW,291,0.0,0.0,99,0.00,,,0.00,Wunderground v.1.15,2013-09-20 11:50:00,
2013-09-20 07:51:00,62.0,61.7,30.05,WNW,291,0.0,0.0,99,0.00,,,0.00,Wunderground v.1.15,2013-09-20 11:51:00,
2013-09-20 07:54:00,62.0,61.7,30.05,WNW,290,0.0,0.0,99,0.00,,,0.00,Wunderground v.1.15,2013-09-20 11:54:00,
2013-09-20 07:55:00,62.0,61.7,30.05,WNW,291,0.0,0.0,99,0.00,,,0.00,Wunderground v.1.15,2013-09-20 11:55:00,
2013-09-20 07:56:00,62.0,61.7,30.05,WNW,291,0.0,0.0,99,0.00,,,0.00,Wunderground v.1.15,2013-09-20 11:56:00,
2013-09-20 07:59:00,62.1,61.8,30.05,WNW,291,0.0,0.0,99,0.00,,,0.00,Wunderground v.1.15,2013-09-20 11:59:00,
2013-09-20 08:01:00,62.1,61.8,30.05,WNW,291,0.0,0.0,99,0.00,,,0.00,Wunderground v.1.15,2013-09-20 12:01:00,
2013-09-20 08:05:00,62.2,61.9,30.05,WNW,290,0.0,0.0,99,0.00,,,0.00,Wunderground v.1.15,2013-09-20 12:05:00,
2013-09-20 08:06:00,62.2,61.9,30.05,WNW,291,0.0,0.0,99,0.00,,,0.00,Wunderground v.1.15,2013-09-20 12:06:00,
2013-09-20 08:10:00,62.2,61.9,30.05,WNW,291,0.0,0.0,99,0.00,,,0.00,Wunderground v.1.15,2013-09-20 12:10:00,
2013-09-20 08:11:00,62.2,61.9,30.05,WNW,291,0.0,0.0,99,0.00,,,0.00,Wunderground v.1.15,2013-09-20 12:11:00,
2013-09-20 08:12:00,62.2,61.9,30.05,WNW,291,0.0,0.0,99,0.00,,,0.00,Wunderground v.1.15,2013-09-20 12:12:00,
2013-09-20 08:15:00,62.3,62.0,30.05,WNW,290,0.0,0.0,99,0.00,,,0.00,Wunderground v.1.15,2013-09-20 12:15:00,
2013-09-20 08:16:00,62.3,62.0,30.05,WNW,291,0.0,0.0,99,0.00,,,0.00,Wunderground v.1.15,2013-09-20 12:16:00,
2013-09-20 08:17:00,62.3,62.0,30.05,WNW,290,0.0,0.0,99,0.00,,,0.00,Wunderground v.1.15,2013-09-20 12:17:00,
2013-09-20 08:20:00,62.3,62.0,30.05,WNW,291,0.0,0.0,99,0.00,,,0.00,Wunderground v.1.15,2013-09-20 12:20:00,
2013-09-20 08:21:00,62.4,62.1,30.05,WNW,291,0.0,0.0,99,0.00,,,0.00,Wunderground v.1.15,2013-09-20 12:21:00,
2013-09-20 08:22:00,62.4,62.1,30.05,WNW,290,0.0,0.0,99,0.00,,,0.00,Wunderground v.1.15,2013-09-20 12:22:00,
2013-09-20 08:25:00,62.5,62.2,30.04,WNW,291,0.0,0.0,99,0.00,,,0.00,Wunderground v.1.15,2013-09-20 12:25:00,
2013-09-20 08:26:00,62.6,62.3,30.04,WNW,291,0.0,0.0,99,0.00,,,0.00,Wunderground v.1.15,2013-09-20 12:26:00,
2013-09-20 08:27:00,62.6,62.3,30.04,WNW,290,0.0,0.0,99,0.00,,,0.00,Wunderground v.1.15,2013-09-20 12:27:00,
2013-09-20 08:30:00,62.8,62.5,30.05,WNW,291,0.0,0.0,99,0.00,,,0.00,Wunderground v.1.15,2013-09-20 12:30:00,
2013-09-20 08:32:00,62.9,62.6,30.05,WNW,291,0.0,0.0,99,0.00,,,0.00,Wunderground v.1.15,2013-09-20 12:32:00,
2013-09-20 08:36:00,63.1,62.8,30.05,WNW,291,0.0,0.0,99,0.00,,,0.00,Wunderground v.1.15,2013-09-20 12:36:00,
2013-09-20 08:37:00,63.1,62.8,30.05,WNW,290,0.0,0.0,99,0.00,,,0.00,Wunderground v.1.15,2013-09-20 12:37:00,
2013-09-20 08:42:00,63.2,62.9,30.05,WNW,291,0.0,0.0,99,0.00,,,0.00,Wunderground v.1.15,2013-09-20 12:42:00,
2013-09-20 08:47:00,63.5,63.2,30.04,WNW,290,0.0,0.0,99,0.00,,,0.00,Wunderground v.1.15,2013-09-20 12:47:00,
2013-09-20 08:52:00,63.7,63.4,30.04,WNW,291,0.0,0.0,99,0.00,,,0.00,Wunderground v.1.15,2013-09-20 12:52:00,
2013-09-20 08:53:00,63.8,63.5,30.04,WNW,291,0.0,0.0,99,0.00,,,0.00,Wunderground v.1.15,2013-09-20 12:53:00,
2013-09-20 08:57:00,64.1,63.8,30.04,WNW,291,0.0,0.0,99,0.00,,,0.00,Wunderground v.1.15,2013-09-20 12:57:00,
2013-09-20 08:58:00,64.1,63.8,30.04,WNW,291,0.0,0.0,99,0.00,,,0.00,Wunderground v.1.15,2013-09-20 12:58:00,
2013-09-20 09:02:00,64.6,64.3,30.04,WNW,290,0.0,0.0,99,0.00,,,0.00,Wunderground v.1.15,2013-09-20 13:02:00,
2013-09-20 09:03:00,64.7,64.4,30.04,West,275,0.0,0.0,99,0.00,,,0.00,Wunderground v.1.15,2013-09-20 13:03:00,
2013-09-20 09:07:00,65.1,64.8,30.04,WSW,256,0.0,4.0,99,0.00,,,0.00,Wunderground v.1.15,2013-09-20 13:07:00,
2013-09-20 09:08:00,65.2,64.9,30.04,West,271,1.0,4.0,99,0.00,,,0.00,Wunderground v.1.15,2013-09-20 13:08:00,
2013-09-20 09:09:00,65.3,65.0,30.04,WSW,243,2.0,4.0,99,0.00,,,0.00,Wunderground v.1.15,2013-09-20 13:09:00,
2013-09-20 09:12:00,65.7,65.4,30.04,WSW,239,0.0,3.0,99,0.00,,,0.00,Wunderground v.1.15,2013-09-20 13:12:00,
2013-09-20 09:13:00,65.7,65.4,30.04,WSW,239,0.0,3.0,99,0.00,,,0.00,Wunderground v.1.15,2013-09-20 13:13:00,
2013-09-20 09:14:00,65.9,65.3,30.04,WSW,240,1.0,3.0,98,0.00,,,0.00,Wunderground v.1.15,2013-09-20 13:14:00,
2013-09-20 09:17:00,66.4,65.5,30.04,WSW,248,0.0,3.0,97,0.00,,,0.00,Wunderground v.1.15,2013-09-20 13:17:00,
2013-09-20 09:18:00,66.4,65.5,30.04,WSW,248,0.0,3.0,97,0.00,,,0.00,Wunderground v.1.15,2013-09-20 13:18:00,
2013-09-20 09:19:00,66.6,65.7,30.04,West,259,0.0,3.0,97,0.00,,,0.00,Wunderground v.1.15,2013-09-20 13:19:00,
2013-09-20 09:20:00,66.8,65.9,30.04,West,263,0.0,1.0,97,0.00,,,0.00,Wunderground v.1.15,2013-09-20 13:20:00,
2013-09-20 09:22:00,67.1,66.2,30.04,West,263,0.0,1.0,97,0.00,,,0.00,Wunderground v.1.15,2013-09-20 13:22:00,
2013-09-20 09:23:00,67.1,66.2,30.04,West,263,0.0,1.0,97,0.00,,,0.00,Wunderground v.1.15,2013-09-20 13:23:00,
2013-09-20 09:24:00,67.1,66.2,30.04,West,262,0.0,1.0,97,0.00,,,0.00,Wunderground v.1.15,2013-09-20 13:24:00,
2013-09-20 09:25:00,67.3,66.4,30.04,West,263,0.0,1.0,97,0.00,,,0.00,Wunderground v.1.15,2013-09-20 13:25:00,
2013-09-20 09:28:00,67.5,66.3,30.04,West,263,0.0,1.0,96,0.00,,,0.00,Wunderground v.1.15,2013-09-20 13:28:00,
2013-09-20 09:29:00,67.6,66.4,30.04,West,262,0.0,1.0,96,0.00,,,0.00,Wunderground v.1.15,2013-09-20 13:29:00,
2013-09-20 09:30:00,67.9,66.7,30.04,West,263,0.0,0.0,96,0.00,,,0.00,Wunderground v.1.15,2013-09-20 13:30:00,
2013-09-20 09:33:00,68.3,67.1,30.04,West,263,0.0,0.0,96,0.00,,,0.00,Wunderground v.1.15,2013-09-20 13:33:00,
2013-09-20 09:34:00,68.3,67.1,30.04,West,263,0.0,0.0,96,0.00,,,0.00,Wunderground v.1.15,2013-09-20 13:34:00,
2013-09-20 09:36:00,68.4,66.9,30.05,WSW,243,0.0,1.0,95,0.00,,,0.00,Wunderground v.1.15,2013-09-20 13:36:00,
2013-09-20 09:39:00,68.6,66.5,30.05,WSW,253,0.0,1.0,93,0.00,,,0.00,Wunderground v.1.15,2013-09-20 13:39:00,
2013-09-20 09:41:00,68.9,66.8,30.05,West,259,0.0,0.0,93,0.00,,,0.00,Wunderground v.1.15,2013-09-20 13:41:00,
2013-09-20 09:44:00,69.0,66.3,30.05,West,259,0.0,0.0,91,0.00,,,0.00,Wunderground v.1.15,2013-09-20 13:44:00,
2013-09-20 09:45:00,69.1,66.4,30.05,WSW,258,0.0,0.0,91,0.00,,,0.00,Wunderground v.1.15,2013-09-20 13:45:00,
2013-09-20 09:47:00,69.3,66.2,30.05,West,259,0.0,0.0,90,0.00,,,0.00,Wunderground v.1.15,2013-09-20 13:47:00,
2013-09-20 09:49:00,69.3,66.2,30.05,West,259,0.0,0.0,90,0.00,,,0.00,Wunderground v.1.15,2013-09-20 13:49:00,
2013-09-20 09:50:00,69.4,66.0,30.04,West,259,0.0,0.0,89,0.00,,,0.00,Wunderground v.1.15,2013-09-20 13:50:00,
2013-09-20 09:53:00,69.5,66.4,30.04,WSW,246,0.0,0.0,90,0.00,,,0.00,Wunderground v.1.15,2013-09-20 13:53:00,
2013-09-20 09:54:00,69.6,66.2,30.04,WSW,245,0.0,0.0,89,0.00,,,0.00,Wunderground v.1.15,2013-09-20 13:54:00,
2013-09-20 09:55:00,69.6,66.2,30.04,WSW,245,0.0,0.0,89,0.00,,,0.00,Wunderground v.1.15,2013-09-20 13:55:00,
2013-09-20 09:58:00,69.8,66.4,30.05,WSW,245,0.0,0.0,89,0.00,,,0.00,Wunderground v.1.15,2013-09-20 13:58:00,
2013-09-20 09:59:00,69.9,66.5,30.05,WSW,245,0.0,0.0,89,0.00,,,0.00,Wunderground v.1.15,2013-09-20 13:59:00,
2013-09-20 10:00:00,70.0,66.6,30.05,WSW,246,0.0,0.0,89,0.00,,,0.00,Wunderground v.1.15,2013-09-20 14:00:00,
2013-09-20 10:03:00,70.1,66.0,30.05,WSW,246,0.0,0.0,87,0.00,,,0.00,Wunderground v.1.15,2013-09-20 14:03:00,
2013-09-20 10:04:00,70.2,66.1,30.05,WSW,246,0.0,0.0,87,0.00,,,0.00,Wunderground v.1.15,2013-09-20 14:04:00,
2013-09-20 10:05:00,70.2,66.1,30.05,WSW,246,0.0,0.0,87,0.00,,,0.00,Wunderground v.1.15,2013-09-20 14:05:00,
2013-09-20 10:06:00,70.2,66.1,30.05,WSW,246,0.0,0.0,87,0.00,,,0.00,Wunderground v.1.15,2013-09-20 14:06:00,
2013-09-20 10:08:00,70.2,66.1,30.05,WSW,243,0.0,0.0,87,0.00,,,0.00,Wunderground v.1.15,2013-09-20 14:08:00,
2013-09-20 10:09:00,70.3,66.2,30.05,WSW,243,0.0,0.0,87,0.00,,,0.00,Wunderground v.1.15,2013-09-20 14:09:00,
2013-09-20 10:10:00,70.3,66.2,30.05,WSW,243,0.0,0.0,87,0.00,,,0.00,Wunderground v.1.15,2013-09-20 14:10:00,
2013-09-20 10:11:00,70.3,66.2,30.05,WSW,246,0.0,0.0,87,0.00,,,0.00,Wunderground v.1.15,2013-09-20 14:11:00,
2013-09-20 10:12:00,70.4,66.7,30.05,WSW,246,0.0,0.0,88,0.00,,,0.00,Wunderground v.1.15,2013-09-20 14:12:00,
2013-09-20 10:13:00,70.4,66.7,30.05,WSW,248,0.0,0.0,88,0.00,,,0.00,Wunderground v.1.15,2013-09-20 14:13:00,
2013-09-20 10:14:00,70.5,66.4,30.05,WSW,248,0.0,0.0,87,0.00,,,0.00,Wunderground v.1.15,2013-09-20 14:14:00,
2013-09-20 10:15:00,70.5,66.4,30.05,WSW,248,0.0,0.0,87,0.00,,,0.00,Wunderground v.1.15,2013-09-20 14:15:00,
2013-09-20 10:16:00,70.6,66.5,30.05,WSW,248,0.0,0.0,87,0.00,,,0.00,Wunderground v.1.15,2013-09-20 14:16:00,
2013-09-20 10:17:00,70.6,66.5,30.05,WSW,248,0.0,0.0,87,0.00,,,0.00,Wunderground v.1.15,2013-09-20 14:17:00,
2013-09-20 10:18:00,70.8,66.7,30.05,WSW,248,0.0,0.0,87,0.00,,,0.00,Wunderground v.1.15,2013-09-20 14:18:00,
2013-09-20 10:20:00,70.9,66.8,30.05,WSW,257,0.0,0.0,87,0.00,,,0.00,Wunderground v.1.15,2013-09-20 14:20:00,
2013-09-20 10:21:00,71.1,67.0,30.05,WSW,257,0.0,0.0,87,0.00,,,0.00,Wunderground v.1.15,2013-09-20 14:21:00,
2013-09-20 10:22:00,71.3,67.2,30.05,NW,321,0.0,0.0,87,0.00,,,0.00,Wunderground v.1.15,2013-09-20 14:22:00,
2013-09-20 10:24:00,71.4,67.0,30.05,NNW,331,0.0,1.0,86,0.00,,,0.00,Wunderground v.1.15,2013-09-20 14:24:00,
2013-09-20 10:25:00,71.5,66.8,30.04,NW,324,0.0,1.0,85,0.00,,,0.00,Wunderground v.1.15,2013-09-20 14:25:00,
2013-09-20 10:26:00,71.6,66.8,30.04,WSW,240,0.0,1.0,85,0.00,,,0.00,Wunderground v.1.15,2013-09-20 14:26:00,
2013-09-20 10:28:00,71.7,66.9,30.04,WSW,255,0.0,2.0,85,0.00,,,0.00,Wunderground v.1.15,2013-09-20 14:28:00,
2013-09-20 10:29:00,71.8,67.0,30.04,WSW,255,0.0,2.0,85,0.00,,,0.00,Wunderground v.1.15,2013-09-20 14:29:00,
2013-09-20 10:30:00,71.9,67.1,30.04,WSW,255,0.0,0.0,85,0.00,,,0.00,Wunderground v.1.15,2013-09-20 14:30:00,
2013-09-20 10:31:00,72.0,66.9,30.04,WSW,255,0.0,0.0,84,0.00,,,0.00,Wunderground v.1.15,2013-09-20 14:31:00,
2013-09-20 10:33:00,72.6,67.5,30.04,West,281,0.0,2.0,84,0.00,,,0.00,Wunderground v.1.15,2013-09-20 14:33:00,
2013-09-20 10:34:00,72.7,67.6,30.04,SW,235,3.0,3.0,84,0.00,,,0.00,Wunderground v.1.15,2013-09-20 14:34:00,
2013-09-20 10:35:00,72.9,68.1,30.04,WSW,239,2.0,3.0,85,0.00,,,0.00,Wunderground v.1.15,2013-09-20 14:35:00,
2013-09-20 10:36:00,72.9,67.4,30.04,WSW,239,1.0,3.0,83,0.00,,,0.00,Wunderground v.1.15,2013-09-20 14:36:00,
2013-09-20 10:39:00,72.8,67.0,30.05,WSW,253,0.0,3.0,82,0.00,,,0.00,Wunderground v.1.15,2013-09-20 14:39:00,
2013-09-20 10:40:00,72.8,67.0,30.05,WSW,253,0.0,1.0,82,0.00,,,0.00,Wunderground v.1.15,2013-09-20 14:40:00,
2013-09-20 10:41:00,72.9,67.1,30.05,WSW,253,0.0,1.0,82,0.00,,,0.00,Wunderground v.1.15,2013-09-20 14:41:00,
2013-09-20 10:42:00,72.9,67.1,30.05,WSW,257,0.0,1.0,82,0.00,,,0.00,Wunderground v.1.15,2013-09-20 14:42:00,
2013-09-20 10:45:00,73.0,67.5,30.04,WSW,257,0.0,1.0,83,0.00,,,0.00,Wunderground v.1.15,2013-09-20 14:45:00,
2013-09-20 10:46:00,73.1,67.6,30.04,WSW,257,0.0,1.0,83,0.00,,,0.00,Wunderground v.1.15,2013-09-20 14:46:00,
2013-09-20 10:47:00,73.1,67.6,30.04,WSW,240,0.0,1.0,83,0.00,,,0.00,Wunderground v.1.15,2013-09-20 14:47:00,
2013-09-20 10:50:00,73.3,67.8,30.04,West,259,0.0,0.0,83,0.00,,,0.00,Wunderground v.1.15,2013-09-20 14:50:00,
2013-09-20 10:51:00,73.4,67.9,30.04,West,260,0.0,1.0,83,0.00,,,0.00,Wunderground v.1.15,2013-09-20 14:51:00,
2013-09-20 10:52:00,73.4,67.6,30.04,WSW,253,0.0,1.0,82,0.00,,,0.00,Wunderground v.1.15,2013-09-20 14:52:00,
2013-09-20 10:55:00,73.3,67.8,30.04,WSW,238,2.0,2.0,83,0.00,,,0.00,Wunderground v.1.15,2013-09-20 14:55:00,
2013-09-20 10:56:00,73.3,67.5,30.04,WSW,237,1.0,2.0,82,0.00,,,0.00,Wunderground v.1.15,2013-09-20 14:56:00,
2013-09-20 10:57:00,73.2,67.4,30.04,WSW,238,0.0,2.0,82,0.00,,,0.00,Wunderground v.1.15,2013-09-20 14:57:00,
2013-09-20 11:00:00,73.4,67.9,30.04,WSW,237,0.0,2.0,83,0.00,,,0.00,Wunderground v.1.15,2013-09-20 15:00:00,
2013-09-20 11:01:00,73.4,67.6,30.04,WSW,237,0.0,2.0,82,0.00,,,0.00,Wunderground v.1.15,2013-09-20 15:01:00,
2013-09-20 11:02:00,73.5,67.7,30.03,WSW,238,0.0,2.0,82,0.00,,,0.00,Wunderground v.1.15,2013-09-20 15:02:00,
2013-09-20 11:06:00,73.8,67.6,30.03,WSW,240,0.0,2.0,81,0.00,,,0.00,Wunderground v.1.15,2013-09-20 15:06:00,
2013-09-20 11:07:00,73.9,68.1,30.03,WSW,240,0.0,2.0,82,0.00,,,0.00,Wunderground v.1.15,2013-09-20 15:07:00,
2013-09-20 11:11:00,74.4,68.5,30.03,WSW,255,0.0,0.0,82,0.00,,,0.00,Wunderground v.1.15,2013-09-20 15:11:00,
2013-09-20 11:12:00,74.4,68.2,30.03,WSW,255,0.0,0.0,81,0.00,,,0.00,Wunderground v.1.15,2013-09-20 15:12:00,
2013-09-20 11:16:00,74.4,68.2,30.03,WSW,239,2.0,2.0,81,0.00,,,0.00,Wunderground v.1.15,2013-09-20 15:16:00,
2013-09-20 11:17:00,74.3,68.1,30.03,SW,235,2.0,2.0,81,0.00,,,0.00,Wunderground v.1.15,2013-09-20 15:17:00,
2013-09-20 11:18:00,74.2,68.0,30.03,WSW,243,1.0,3.0,81,0.00,,,0.00,Wunderground v.1.15,2013-09-20 15:18:00,
2013-09-20 11:22:00,73.9,67.7,30.03,WSW,242,1.0,1.0,81,0.00,,,0.00,Wunderground v.1.15,2013-09-20 15:22:00,
2013-09-20 11:24:00,73.8,67.6,30.03,WSW,240,0.0,3.0,81,0.00,,,0.00,Wunderground v.1.15,2013-09-20 15:24:00,
2013-09-20 11:27:00,73.8,68.0,30.03,WSW,248,0.0,3.0,82,0.00,,,0.00,Wunderground v.1.15,2013-09-20 15:27:00,
2013-09-20 11:28:00,73.7,67.5,30.03,WSW,238,2.0,3.0,81,0.00,,,0.00,Wunderground v.1.15,2013-09-20 15:28:00,
2013-09-20 11:32:00,73.5,67.7,30.03,WSW,249,0.0,2.0,82,0.00,,,0.00,Wunderground v.1.15,2013-09-20 15:32:00,
2013-09-20 11:33:00,73.5,67.7,30.03,WSW,240,2.0,2.0,82,0.00,,,0.00,Wunderground v.1.15,2013-09-20 15:33:00,
2013-09-20 11:34:00,73.5,67.7,30.03,WSW,242,1.0,2.0,82,0.00,,,0.00,Wunderground v.1.15,2013-09-20 15:34:00,
2013-09-20 11:37:00,73.4,67.9,30.03,WSW,248,0.0,2.0,83,0.00,,,0.00,Wunderground v.1.15,2013-09-20 15:37:00,
2013-09-20 11:38:00,73.5,68.4,30.03,WSW,248,0.0,2.0,84,0.00,,,0.00,Wunderground v.1.15,2013-09-20 15:38:00,
2013-09-20 11:39:00,73.5,68.4,30.03,WSW,248,0.0,2.0,84,0.00,,,0.00,Wunderground v.1.15,2013-09-20 15:39:00,
2013-09-20 11:42:00,73.7,68.2,30.03,WSW,257,0.0,0.0,83,0.00,,,0.00,Wunderground v.1.15,2013-09-20 15:42:00,
2013-09-20 11:43:00,73.7,68.2,30.03,West,274,0.0,0.0,83,0.00,,,0.00,Wunderground v.1.15,2013-09-20 15:43:00,
2013-09-20 11:44:00,73.8,68.3,30.03,West,273,0.0,0.0,83,0.00,,,0.00,Wunderground v.1.15,2013-09-20 15:44:00,
2013-09-20 11:45:00,73.8,68.3,30.03,WSW,243,0.0,0.0,83,0.00,,,0.00,Wunderground v.1.15,2013-09-20 15:45:00,
2013-09-20 11:47:00,73.8,68.3,30.03,WSW,246,0.0,0.0,83,0.00,,,0.00,Wunderground v.1.15,2013-09-20 15:47:00,
2013-09-20 11:49:00,73.9,68.4,30.02,WSW,246,0.0,0.0,83,0.00,,,0.00,Wunderground v.1.15,2013-09-20 15:49:00,
2013-09-20 11:51:00,74.0,68.2,30.02,WSW,240,1.0,2.0,82,0.00,,,0.00,Wunderground v.1.15,2013-09-20 15:51:00,
2013-09-20 11:53:00,74.0,68.2,30.02,WSW,240,1.0,2.0,82,0.00,,,0.00,Wunderground v.1.15,2013-09-20 15:53:00,
2013-09-20 11:54:00,74.0,68.2,30.02,WSW,240,0.0,2.0,82,0.00,,,0.00,Wunderground v.1.15,2013-09-20 15:54:00,
2013-09-20 11:56:00,74.1,68.6,30.02,WSW,240,0.0,2.0,83,0.00,,,0.00,Wunderground v.1.15,2013-09-20 15:56:00,
2013-09-20 11:58:00,74.3,68.8,30.02,WSW,240,1.0,2.0,83,0.00,,,0.00,Wunderground v.1.15,2013-09-20 15:58:00,
2013-09-20 11:59:00,74.4,68.5,30.02,WSW,240,0.0,2.0,82,0.00,,,0.00,Wunderground v.1.15,2013-09-20 15:59:00,
2013-09-20 12:01:00,74.6,68.7,30.02,West,260,0.0,2.0,82,0.00,,,0.00,Wunderground v.1.15,2013-09-20 16:01:00,
2013-09-20 12:03:00,74.7,68.5,30.02,WSW,253,0.0,2.0,81,0.00,,,0.00,Wunderground v.1.15,2013-09-20 16:03:00,
2013-09-20 12:04:00,74.9,69.0,30.02,WSW,253,1.0,2.0,82,0.00,,,0.00,Wunderground v.1.15,2013-09-20 16:04:00,
2013-09-20 12:05:00,74.9,69.4,30.02,WSW,250,0.0,2.0,83,0.00,,,0.00,Wunderground v.1.15,2013-09-20 16:05:00,
2013-09-20 12:06:00,75.2,69.0,30.02,West,262,1.0,2.0,81,0.00,,,0.00,Wunderground v.1.15,2013-09-20 16:06:00,
2013-09-20 12:08:00,75.4,69.2,30.02,WNW,288,1.0,2.0,81,0.00,,,0.00,Wunderground v.1.15,2013-09-20 16:08:00,
2013-09-20 12:10:00,75.4,68.8,30.02,WNW,288,0.0,0.0,80,0.00,,,0.00,Wunderground v.1.15,2013-09-20 16:10:00,
2013-09-20 12:11:00,75.6,69.4,30.02,WNW,287,0.0,0.0,81,0.00,,,0.00,Wunderground v.1.15,2013-09-20 16:11:00,
2013-09-20 12:13:00,76.0,69.7,30.01,WNW,287,0.0,1.0,81,0.00,,,0.00,Wunderground v.1.15,2013-09-20 16:13:00,
2013-09-20 12:14:00,76.1,69.8,30.01,WNW,287,0.0,1.0,81,0.00,,,0.00,Wunderground v.1.15,2013-09-20 16:14:00,
2013-09-20 12:15:00,76.5,70.6,30.01,WSW,243,2.0,2.0,82,0.00,,,0.00,Wunderground v.1.15,2013-09-20 16:15:00,
2013-09-20 12:16:00,76.7,69.7,30.01,WSW,242,0.0,2.0,79,0.00,,,0.00,Wunderground v.1.15,2013-09-20 16:16:00,
2013-09-20 12:18:00,76.9,69.1,30.01,WNW,296,0.0,2.0,77,0.00,,,0.00,Wunderground v.1.15,2013-09-20 16:18:00,
2013-09-20 12:19:00,77.0,69.2,30.01,NW,314,0.0,2.0,77,0.00,,,0.00,Wunderground v.1.15,2013-09-20 16:19:00,
2013-09-20 12:20:00,77.2,69.8,30.01,WSW,245,2.0,3.0,78,0.00,,,0.00,Wunderground v.1.15,2013-09-20 16:20:00,
2013-09-20 12:21:00,77.2,69.8,30.01,WSW,245,1.0,3.0,78,0.00,,,0.00,Wunderground v.1.15,2013-09-20 16:21:00,
2013-09-20 12:22:00,77.3,69.5,30.01,SW,235,3.0,3.0,77,0.00,,,0.00,Wunderground v.1.15,2013-09-20 16:22:00,
2013-09-20 12:24:00,77.5,69.7,30.01,WSW,253,1.0,4.0,77,0.00,,,0.00,Wunderground v.1.15,2013-09-20 16:24:00,
2013-09-20 12:26:00,77.7,69.5,30.01,WSW,253,0.0,4.0,76,0.00,,,0.00,Wunderground v.1.15,2013-09-20 16:26:00,
2013-09-20 12:27:00,77.8,70.0,30.01,WSW,239,1.0,4.0,77,0.00,,,0.00,Wunderground v.1.15,2013-09-20 16:27:00,
2013-09-20 12:29:00,78.0,69.8,30.01,WSW,239,0.0,4.0,76,0.00,,,0.00,Wunderground v.1.15,2013-09-20 16:29:00,
2013-09-20 12:31:00,78.4,71.0,30.01,WSW,239,0.0,1.0,78,0.00,,,0.00,Wunderground v.1.15,2013-09-20 16:31:00,
2013-09-20 12:32:00,78.6,70.4,30.01,WSW,246,0.0,1.0,76,0.00,,,0.00,Wunderground v.1.15,2013-09-20 16:32:00,
2013-09-20 12:34:00,78.9,69.5,30.01,SW,224,4.0,5.0,73,0.00,,,0.00,Wunderground v.1.15,2013-09-20 16:34:00,
2013-09-20 12:36:00,78.8,69.0,30.01,SW,235,1.0,5.0,72,0.00,,,0.00,Wunderground v.1.15,2013-09-20 16:36:00,
2013-09-20 12:37:00,78.9,70.7,30.01,SW,234,0.0,5.0,76,0.00,,,0.00,Wunderground v.1.15,2013-09-20 16:37:00,
2013-09-20 12:38:00,79.0,70.4,30.01,SW,233,0.0,5.0,75,0.00,,,0.00,Wunderground v.1.15,2013-09-20 16:38:00,
2013-09-20 12:39:00,79.2,69.8,30.01,WSW,249,0.0,5.0,73,0.00,,,0.00,Wunderground v.1.15,2013-09-20 16:39:00,
2013-09-20 12:41:00,79.4,70.0,30.00,SW,235,1.0,2.0,73,0.00,,,0.00,Wunderground v.1.15,2013-09-20 16:41:00,
2013-09-20 12:43:00,79.6,69.4,30.00,NW,312,1.0,3.0,71,0.00,,,0.00,Wunderground v.1.15,2013-09-20 16:43:00,
2013-09-20 12:44:00,79.7,69.0,30.00,West,259,0.0,3.0,70,0.00,,,0.00,Wunderground v.1.15,2013-09-20 16:44:00,
2013-09-20 12:45:00,79.7,69.0,30.00,West,259,0.0,3.0,70,0.00,,,0.00,Wunderground v.1.15,2013-09-20 16:45:00,
2013-09-20 12:46:00,79.8,70.4,30.00,West,278,1.0,3.0,73,0.00,,,0.00,Wunderground v.1.15,2013-09-20 16:46:00,
2013-09-20 12:48:00,80.1,69.0,30.00,West,278,0.0,3.0,69,0.00,,,0.00,Wunderground v.1.15,2013-09-20 16:48:00,
2013-09-20 12:49:00,80.5,70.6,30.00,West,278,0.0,3.0,72,0.00,,,0.00,Wunderground v.1.15,2013-09-20 16:49:00,
2013-09-20 12:50:00,80.7,70.0,30.00,West,276,0.0,1.0,70,0.00,,,0.00,Wunderground v.1.15,2013-09-20 16:50:00,
2013-09-20 12:51:00,80.9,69.8,30.00,WSW,245,0.0,1.0,69,0.00,,,0.00,Wunderground v.1.15,2013-09-20 16:51:00,
2013-09-20 12:53:00,81.2,70.1,30.00,WSW,246,0.0,1.0,69,0.00,,,0.00,Wunderground v.1.15,2013-09-20 16:53:00,
2013-09-20 12:55:00,81.3,70.6,30.00,WSW,245,0.0,1.0,70,0.00,,,0.00,Wunderground v.1.15,2013-09-20 16:55:00,
2013-09-20 12:56:00,81.5,71.6,30.00,WSW,246,0.0,1.0,72,0.00,,,0.00,Wunderground v.1.15,2013-09-20 16:56:00,
2013-09-20 12:59:00,82.0,70.8,30.00,West,262,1.0,1.0,69,0.00,,,0.00,Wunderground v.1.15,2013-09-20 16:59:00,
2013-09-20 13:00:00,82.1,69.2,30.00,WSW,246,1.0,1.0,65,0.00,,,0.00,Wunderground v.1.15,2013-09-20 17:00:00,
2013-09-20 13:01:00,82.2,69.3,30.00,NNW,340,1.0,1.0,65,0.00,,,0.00,Wunderground v.1.15,2013-09-20 17:01:00,
2013-09-20 13:04:00,82.3,69.8,29.99,SW,235,2.0,2.0,66,0.00,,,0.00,Wunderground v.1.15,2013-09-20 17:04:00,
2013-09-20 13:05:00,82.3,69.4,30.00,SW,229,2.0,3.0,65,0.00,,,0.00,Wunderground v.1.15,2013-09-20 17:05:00,
2013-09-20 13:06:00,82.2,69.3,30.00,SW,231,0.0,3.0,65,0.00,,,0.00,Wunderground v.1.15,2013-09-20 17:06:00,
2013-09-20 13:10:00,82.0,68.2,30.00,East,85,1.0,1.0,63,0.00,,,0.00,Wunderground v.1.15,2013-09-20 17:10:00,
2013-09-20 13:11:00,82.0,68.6,29.99,East,86,0.0,1.0,64,0.00,,,0.00,Wunderground v.1.15,2013-09-20 17:11:00,
2013-09-20 13:12:00,81.9,69.0,29.99,East,85,0.0,1.0,65,0.00,,,0.00,Wunderground v.1.15,2013-09-20 17:12:00,
2013-09-20 13:15:00,82.4,72.0,29.99,East,85,0.0,1.0,71,0.00,,,0.00,Wunderground v.1.15,2013-09-20 17:15:00,
2013-09-20 13:16:00,82.5,72.1,29.99,East,85,0.0,1.0,71,0.00,,,0.00,Wunderground v.1.15,2013-09-20 17:16:00,
2013-09-20 13:18:00,82.9,70.4,29.99,East,86,0.0,1.0,66,0.00,,,0.00,Wunderground v.1.15,2013-09-20 17:18:00,
2013-09-20 13:20:00,83.2,68.8,29.99,East,86,0.0,1.0,62,0.00,,,0.00,Wunderground v.1.15,2013-09-20 17:20:00,
2013-09-20 13:21:00,83.2,68.8,29.99,East,86,1.0,1.0,62,0.00,,,0.00,Wunderground v.1.15,2013-09-20 17:21:00,
2013-09-20 13:22:00,83.3,69.4,29.99,East,86,1.0,1.0,63,0.00,,,0.00,Wunderground v.1.15,2013-09-20 17:22:00,
2013-09-20 13:23:00,83.2,68.8,29.99,SW,236,1.0,3.0,62,0.00,,,0.00,Wunderground v.1.15,2013-09-20 17:23:00,
2013-09-20 13:25:00,83.1,70.1,29.99,WSW,248,0.0,3.0,65,0.00,,,0.00,Wunderground v.1.15,2013-09-20 17:25:00,
2013-09-20 13:26:00,83.1,69.2,29.98,WSW,249,0.0,3.0,63,0.00,,,0.00,Wunderground v.1.15,2013-09-20 17:26:00,
2013-09-20 13:28:00,83.1,68.3,29.98,NNW,333,2.0,3.0,61,0.00,,,0.00,Wunderground v.1.15,2013-09-20 17:28:00,
2013-09-20 13:31:00,83.1,67.3,29.99,South,190,0.0,1.0,59,0.00,,,0.00,Wunderground v.1.15,2013-09-20 17:31:00,
2013-09-20 13:33:00,83.3,67.5,29.99,ENE,78,2.0,2.0,59,0.00,,,0.00,Wunderground v.1.15,2013-09-20 17:33:00,
2013-09-20 13:36:00,82.9,67.1,29.98,NNW,336,0.0,3.0,59,0.00,,,0.00,Wunderground v.1.15,2013-09-20 17:36:00,
2013-09-20 13:37:00,82.8,68.0,29.98,NNE,12,1.0,3.0,61,0.00,,,0.00,Wunderground v.1.15,2013-09-20 17:37:00,
2013-09-20 13:38:00,82.7,68.4,29.98,NNE,12,0.0,3.0,62,0.00,,,0.00,Wunderground v.1.15,2013-09-20 17:38:00,
2013-09-20 13:41:00,83.0,69.6,29.98,NNE,12,0.0,1.0,64,0.00,,,0.00,Wunderground v.1.15,2013-09-20 17:41:00,
2013-09-20 13:42:00,83.1,69.2,29.98,NNE,16,0.0,1.0,63,0.00,,,0.00,Wunderground v.1.15,2013-09-20 17:42:00,
2013-09-20 13:44:00,83.5,68.6,29.98,NNE,18,0.0,1.0,61,0.00,,,0.00,Wunderground v.1.15,2013-09-20 17:44:00,
2013-09-20 13:46:00,83.7,70.2,29.98,NNE,20,1.0,1.0,64,0.00,,,0.00,Wunderground v.1.15,2013-09-20 17:46:00,
2013-09-20 13:47:00,83.7,69.8,29.98,NNE,32,0.0,1.0,63,0.00,,,0.00,Wunderground v.1.15,2013-09-20 17:47:00,
2013-09-20 13:49:00,83.7,69.3,29.98,ENE,77,1.0,2.0,62,0.00,,,0.00,Wunderground v.1.15,2013-09-20 17:49:00,
2013-09-20 13:51:00,83.6,68.7,29.98,North,354,0.0,1.0,61,0.00,,,0.00,Wunderground v.1.15,2013-09-20 17:51:00,
2013-09-20 13:52:00,83.7,69.8,29.98,NW,325,0.0,1.0,63,0.00,,,0.00,Wunderground v.1.15,2013-09-20 17:52:00,
2013-09-20 13:54:00,83.9,70.4,29.98,NW,314,0.0,1.0,64,0.00,,,0.00,Wunderground v.1.15,2013-09-20 17:54:00,
2013-09-20 13:56:00,84.2,70.2,29.98,West,266,0.0,1.0,63,0.00,,,0.00,Wunderground v.1.15,2013-09-20 17:56:00,
2013-09-20 13:57:00,84.2,68.3,29.98,WSW,248,0.0,2.0,59,0.00,,,0.00,Wunderground v.1.15,2013-09-20 17:57:00,
2013-09-20 13:59:00,84.3,68.9,29.98,WNW,287,0.0,2.0,60,0.00,,,0.00,Wunderground v.1.15,2013-09-20 17:59:00,
2013-09-20 14:01:00,84.4,68.0,29.98,NE,54,0.0,2.0,58,0.00,,,0.00,Wunderground v.1.15,2013-09-20 18:01:00,
2013-09-20 14:02:00,84.4,69.0,29.98,SW,235,2.0,2.0,60,0.00,,,0.00,Wunderground v.1.15,2013-09-20 18:02:00,
2013-09-20 14:04:00,84.2,67.8,29.98,SW,232,0.0,2.0,58,0.00,,,0.00,Wunderground v.1.15,2013-09-20 18:04:00,
2013-09-20 14:05:00,84.1,67.7,29.98,SW,232,0.0,2.0,58,0.00,,,0.00,Wunderground v.1.15,2013-09-20 18:05:00,
2013-09-20 14:07:00,84.1,67.2,29.98,SW,232,0.0,2.0,57,0.00,,,0.00,Wunderground v.1.15,2013-09-20 18:07:00,
2013-09-20 14:08:00,84.3,67.9,29.98,SW,232,0.0,2.0,58,0.00,,,0.00,Wunderground v.1.15,2013-09-20 18:08:00,
2013-09-20 14:09:00,84.4,68.0,29.98,SW,232,0.0,0.0,58,0.00,,,0.00,Wunderground v.1.15,2013-09-20 18:09:00,
2013-09-20 14:10:00,84.4,70.0,29.97,SW,232,1.0,1.0,62,0.00,,,0.00,Wunderground v.1.15,2013-09-20 18:10:00,
2013-09-20 14:12:00,84.5,69.6,29.98,WNW,295,0.0,2.0,61,0.00,,,0.00,Wunderground v.1.15,2013-09-20 18:12:00,
2013-09-20 14:13:00,84.5,68.6,29.97,WNW,302,2.0,2.0,59,0.00,,,0.00,Wunderground v.1.15,2013-09-20 18:13:00,
2013-09-20 14:15:00,84.4,69.0,29.98,NNW,330,1.0,3.0,60,0.00,,,0.00,Wunderground v.1.15,2013-09-20 18:15:00,
2013-09-20 14:16:00,84.2,67.8,29.97,NW,316,0.0,3.0,58,0.00,,,0.00,Wunderground v.1.15,2013-09-20 18:16:00,
2013-09-20 14:17:00,84.1,67.7,29.97,NW,316,1.0,3.0,58,0.00,,,0.00,Wunderground v.1.15,2013-09-20 18:17:00,
2013-09-20 14:18:00,84.0,67.6,29.97,NW,309,0.0,3.0,58,0.00,,,0.00,Wunderground v.1.15,2013-09-20 18:18:00,
2013-09-20 14:20:00,83.8,67.9,29.97,NNE,32,1.0,5.0,59,0.00,,,0.00,Wunderground v.1.15,2013-09-20 18:20:00,
2013-09-20 14:21:00,83.8,67.4,29.97,North,353,0.0,5.0,58,0.00,,,0.00,Wunderground v.1.15,2013-09-20 18:21:00,
2013-09-20 14:22:00,83.8,67.4,29.97,North,352,0.0,5.0,58,0.00,,,0.00,Wunderground v.1.15,2013-09-20 18:22:00,
2013-09-20 14:23:00,83.9,67.5,29.97,ENE,64,1.0,5.0,58,0.00,,,0.00,Wunderground v.1.15,2013-09-20 18:23:00,
2013-09-20 14:24:00,83.9,67.5,29.97,ENE,65,0.0,5.0,58,0.00,,,0.00,Wunderground v.1.15,2013-09-20 18:24:00,
2013-09-20 14:26:00,84.1,67.7,29.97,East,91,2.0,5.0,58,0.00,,,0.00,Wunderground v.1.15,2013-09-20 18:26:00,
2013-09-20 14:27:00,84.0,68.6,29.97,East,91,0.0,5.0,60,0.00,,,0.00,Wunderground v.1.15,2013-09-20 18:27:00,
2013-09-20 14:28:00,84.1,70.1,29.96,East,91,0.0,5.0,63,0.00,,,0.00,Wunderground v.1.15,2013-09-20 18:28:00,
2013-09-20 14:30:00,84.2,68.3,29.97,East,91,0.0,1.0,59,0.00,,,0.00,Wunderground v.1.15,2013-09-20 18:30:00,
2013-09-20 14:31:00,84.4,68.5,29.96,SSW,207,1.0,1.0,59,0.00,,,0.00,Wunderground v.1.15,2013-09-20 18:31:00,
2013-09-20 14:32:00,84.6,68.7,29.96,West,265,0.0,1.0,59,0.00,,,0.00,Wunderground v.1.15,2013-09-20 18:32:00,
2013-09-20 14:34:00,84.7,68.8,29.96,NNE,30,0.0,2.0,59,0.00,,,0.00,Wunderground v.1.15,2013-09-20 18:34:00,
2013-09-20 14:35:00,84.9,68.5,29.96,ENE,66,1.0,2.0,58,0.00,,,0.00,Wunderground v.1.15,2013-09-20 18:35:00,
2013-09-20 14:36:00,84.9,69.0,29.96,ENE,67,1.0,2.0,59,0.00,,,0.00,Wunderground v.1.15,2013-09-20 18:36:00,
2013-09-20 14:37:00,84.8,68.4,29.96,ENE,67,1.0,2.0,58,0.00,,,0.00,Wunderground v.1.15,2013-09-20 18:37:00,
2013-09-20 14:39:00,84.7,69.8,29.96,ENE,66,0.0,2.0,61,0.00,,,0.00,Wunderground v.1.15,2013-09-20 18:39:00,
2013-09-20 14:40:00,84.8,69.9,29.96,WSW,240,2.0,2.0,61,0.00,,,0.00,Wunderground v.1.15,2013-09-20 18:40:00,
2013-09-20 14:41:00,84.8,68.4,29.96,WSW,253,2.0,2.0,58,0.00,,,0.00,Wunderground v.1.15,2013-09-20 18:41:00,
2013-09-20 14:42:00,84.8,67.9,29.95,WSW,250,1.0,2.0,57,0.00,,,0.00,Wunderground v.1.15,2013-09-20 18:42:00,
2013-09-20 14:44:00,84.9,69.0,29.95,SW,229,2.0,2.0,59,0.00,,,0.00,Wunderground v.1.15,2013-09-20 18:44:00,
2013-09-20 14:46:00,84.8,68.9,29.95,SW,215,2.0,4.0,59,0.00,,,0.00,Wunderground v.1.15,2013-09-20 18:46:00,
2013-09-20 14:47:00,84.7,67.8,29.95,WSW,246,2.0,4.0,57,0.00,,,0.00,Wunderground v.1.15,2013-09-20 18:47:00,
2013-09-20 14:49:00,84.6,67.7,29.95,WSW,242,1.0,4.0,57,0.00,,,0.00,Wunderground v.1.15,2013-09-20 18:49:00,
2013-09-20 14:51:00,84.3,67.9,29.95,SW,228,2.0,4.0,58,0.00,,,0.00,Wunderground v.1.15,2013-09-20 18:51:00,
2013-09-20 14:52:00,84.3,67.9,29.95,SW,226,1.0,4.0,58,0.00,,,0.00,Wunderground v.1.15,2013-09-20 18:52:00,
2013-09-20 14:54:00,84.3,67.9,29.95,SW,228,0.0,4.0,58,0.00,,,0.00,Wunderground v.1.15,2013-09-20 18:54:00,
2013-09-20 14:56:00,84.5,67.1,29.95,NNW,328,2.0,4.0,56,0.00,,,0.00,Wunderground v.1.15,2013-09-20 18:56:00,
2013-09-20 14:57:00,84.5,66.6,29.95,NNE,21,2.0,4.0,55,0.00,,,0.00,Wunderground v.1.15,2013-09-20 18:57:00,
2013-09-20 14:59:00,84.5,67.1,29.95,North,359,0.0,4.0,56,0.00,,,0.00,Wunderground v.1.15,2013-09-20 18:59:00,
2013-09-20 15:01:00,84.5,68.6,29.94,ENE,58,0.0,1.0,59,0.00,,,0.00,Wunderground v.1.15,2013-09-20 19:01:00,
2013-09-20 15:02:00,84.5,67.6,29.94,ESE,117,1.0,1.0,57,0.00,,,0.00,Wunderground v.1.15,2013-09-20 19:02:00,
2013-09-20 15:04:00,84.5,68.1,29.94,ESE,115,0.0,1.0,58,0.00,,,0.00,Wunderground v.1.15,2013-09-20 19:04:00,
2013-09-20 15:06:00,84.5,68.6,29.94,ESE,115,0.0,1.0,59,0.00,,,0.00,Wunderground v.1.15,2013-09-20 19:06:00,
2013-09-20 15:07:00,84.5,68.6,29.94,ESE,115,1.0,1.0,59,0.00,,,0.00,Wunderground v.1.15,2013-09-20 19:07:00,
2013-09-20 15:09:00,84.6,70.1,29.94,ESE,114,1.0,1.0,62,0.00,,,0.00,Wunderground v.1.15,2013-09-20 19:09:00,
2013-09-20 15:10:00,84.6,69.7,29.94,ESE,115,1.0,1.0,61,0.00,,,0.00,Wunderground v.1.15,2013-09-20 19:10:00,
2013-09-20 15:12:00,84.8,67.9,29.94,NW,325,0.0,1.0,57,0.00,,,0.00,Wunderground v.1.15,2013-09-20 19:12:00,
2013-09-20 15:13:00,84.9,68.5,29.94,NW,323,0.0,1.0,58,0.00,,,0.00,Wunderground v.1.15,2013-09-20 19:13:00,
2013-09-20 15:14:00,85.0,68.1,29.94,North,358,1.0,1.0,57,0.00,,,0.00,Wunderground v.1.15,2013-09-20 19:14:00,
2013-09-20 15:15:00,85.1,68.2,29.94,NW,313,1.0,1.0,57,0.00,,,0.00,Wunderground v.1.15,2013-09-20 19:15:00,
2013-09-20 15:17:00,85.1,68.2,29.94,WSW,238,3.0,4.0,57,0.00,,,0.00,Wunderground v.1.15,2013-09-20 19:17:00,
2013-09-20 15:18:00,85.1,68.2,29.94,WSW,240,1.0,4.0,57,0.00,,,0.00,Wunderground v.1.15,2013-09-20 19:18:00,
2013-09-20 15:20:00,85.0,68.6,29.94,WSW,243,0.0,1.0,58,0.00,,,0.00,Wunderground v.1.15,2013-09-20 19:20:00,
2013-09-20 15:23:00,85.1,68.7,29.94,WSW,241,1.0,2.0,58,0.00,,,0.00,Wunderground v.1.15,2013-09-20 19:23:00,
2013-09-20 15:25:00,85.1,69.2,29.93,WSW,254,3.0,3.0,59,0.00,,,0.00,Wunderground v.1.15,2013-09-20 19:25:00,
2013-09-20 15:28:00,85.0,68.6,29.93,SW,232,2.0,3.0,58,0.00,,,0.00,Wunderground v.1.15,2013-09-20 19:28:00,
2013-09-20 15:30:00,85.0,67.5,29.94,WSW,239,0.0,1.0,56,0.00,,,0.00,Wunderground v.1.15,2013-09-20 19:30:00,
2013-09-20 15:31:00,84.9,67.5,29.94,WSW,239,0.0,1.0,56,0.00,,,0.00,Wunderground v.1.15,2013-09-20 19:31:00,
2013-09-20 15:33:00,85.1,67.6,29.93,NW,307,0.0,1.0,56,0.00,,,0.00,Wunderground v.1.15,2013-09-20 19:33:00,
2013-09-20 15:34:00,85.1,68.2,29.93,WSW,246,1.0,1.0,57,0.00,,,0.00,Wunderground v.1.15,2013-09-20 19:34:00,
2013-09-20 15:36:00,85.2,69.3,29.93,SW,228,0.0,1.0,59,0.00,,,0.00,Wunderground v.1.15,2013-09-20 19:36:00,
2013-09-20 15:37:00,85.3,68.8,29.93,East,82,0.0,1.0,58,0.00,,,0.00,Wunderground v.1.15,2013-09-20 19:37:00,
2013-09-20 15:38:00,85.3,67.8,29.93,SW,217,1.0,1.0,56,0.00,,,0.00,Wunderground v.1.15,2013-09-20 19:38:00,
2013-09-20 15:39:00,85.3,67.8,29.93,SW,224,0.0,1.0,56,0.00,,,0.00,Wunderground v.1.15,2013-09-20 19:39:00,
2013-09-20 15:41:00,85.4,68.4,29.93,SW,222,0.0,1.0,57,0.00,,,0.00,Wunderground v.1.15,2013-09-20 19:41:00,
2013-09-20 15:42:00,85.3,68.8,29.93,SW,223,0.0,1.0,58,0.00,,,0.00,Wunderground v.1.15,2013-09-20 19:42:00,
2013-09-20 15:43:00,85.3,68.8,29.93,NW,312,0.0,1.0,58,0.00,,,0.00,Wunderground v.1.15,2013-09-20 19:43:00,
2013-09-20 15:44:00,85.3,68.8,29.93,NW,312,0.0,1.0,58,0.00,,,0.00,Wunderground v.1.15,2013-09-20 19:44:00,
2013-09-20 15:47:00,85.1,67.1,29.93,WSW,239,1.0,4.0,55,0.00,,,0.00,Wunderground v.1.15,2013-09-20 19:47:00,
2013-09-20 15:48:00,84.8,67.4,29.93,West,259,1.0,4.0,56,0.00,,,0.00,Wunderground v.1.15,2013-09-20 19:48:00,
2013-09-20 15:49:00,84.7,67.3,29.93,West,259,0.0,4.0,56,0.00,,,0.00,Wunderground v.1.15,2013-09-20 19:49:00,
2013-09-20 15:52:00,84.4,68.5,29.93,WSW,246,1.0,3.0,59,0.00,,,0.00,Wunderground v.1.15,2013-09-20 19:52:00,
2013-09-20 15:54:00,84.2,69.3,29.93,WSW,239,1.0,3.0,61,0.00,,,0.00,Wunderground v.1.15,2013-09-20 19:54:00,
2013-09-20 15:55:00,84.0,68.1,29.93,SW,232,2.0,3.0,59,0.00,,,0.00,Wunderground v.1.15,2013-09-20 19:55:00,
2013-09-20 15:57:00,83.6,67.8,29.93,SW,229,1.0,3.0,59,0.00,,,0.00,Wunderground v.1.15,2013-09-20 19:57:00,
2013-09-20 15:59:00,83.3,68.4,29.92,SW,229,0.0,3.0,61,0.00,,,0.00,Wunderground v.1.15,2013-09-20 19:59:00,
2013-09-20 16:00:00,83.3,68.4,29.92,SW,229,0.0,1.0,61,0.00,,,0.00,Wunderground v.1.15,2013-09-20 20:00:00,
2013-09-20 16:02:00,83.2,68.8,29.92,SW,229,0.0,1.0,62,0.00,,,0.00,Wunderground v.1.15,2013-09-20 20:02:00,
2013-09-20 16:03:00,83.2,68.8,29.92,SW,229,0.0,1.0,62,0.00,,,0.00,Wunderground v.1.15,2013-09-20 20:03:00,
2013-09-20 16:04:00,83.3,68.9,29.92,ESE,123,1.0,1.0,62,0.00,,,0.00,Wunderground v.1.15,2013-09-20 20:04:00,
2013-09-20 16:05:00,83.3,68.4,29.92,ESE,123,0.0,1.0,61,0.00,,,0.00,Wunderground v.1.15,2013-09-20 20:05:00,
2013-09-20 16:07:00,83.5,68.6,29.92,ESE,123,0.0,1.0,61,0.00,,,0.00,Wunderground v.1.15,2013-09-20 20:07:00,
2013-09-20 16:08:00,83.5,68.6,29.92,ESE,123,0.0,1.0,61,0.00,,,0.00,Wunderground v.1.15,2013-09-20 20:08:00,
2013-09-20 16:09:00,83.6,68.7,29.92,ESE,122,0.0,1.0,61,0.00,,,0.00,Wunderground v.1.15,2013-09-20 20:09:00,
2013-09-20 16:10:00,83.7,68.8,29.92,ESE,122,0.0,0.0,61,0.00,,,0.00,Wunderground v.1.15,2013-09-20 20:10:00,
2013-09-20 16:13:00,83.7,68.8,29.92,SW,232,1.0,1.0,61,0.00,,,0.00,Wunderground v.1.15,2013-09-20 20:13:00,
2013-09-20 16:14:00,83.5,69.6,29.92,SW,229,1.0,2.0,63,0.00,,,0.00,Wunderground v.1.15,2013-09-20 20:14:00,
2013-09-20 16:15:00,83.1,68.7,29.92,SW,229,0.0,2.0,62,0.00,,,0.00,Wunderground v.1.15,2013-09-20 20:15:00,
2013-09-20 16:16:00,83.1,68.7,29.92,SW,229,0.0,2.0,62,0.00,,,0.00,Wunderground v.1.15,2013-09-20 20:16:00,
2013-09-20 16:18:00,82.8,69.8,29.92,SW,229,0.0,2.0,65,0.00,,,0.00,Wunderground v.1.15,2013-09-20 20:18:00,
2013-09-20 16:19:00,82.6,68.7,29.92,SW,229,0.0,2.0,63,0.00,,,0.00,Wunderground v.1.15,2013-09-20 20:19:00,
2013-09-20 16:21:00,82.4,69.9,29.92,SW,229,0.0,0.0,66,0.00,,,0.00,Wunderground v.1.15,2013-09-20 20:21:00,
2013-09-20 16:23:00,81.9,70.3,29.92,SW,229,0.0,0.0,68,0.00,,,0.00,Wunderground v.1.15,2013-09-20 20:23:00,
2013-09-20 16:24:00,81.6,71.3,29.92,SW,229,0.0,0.0,71,0.00,,,0.00,Wunderground v.1.15,2013-09-20 20:24:00,
2013-09-20 16:26:00,81.3,71.4,29.92,SW,229,0.0,0.0,72,0.00,,,0.00,Wunderground v.1.15,2013-09-20 20:26:00,
2013-09-20 16:29:00,80.7,71.2,29.91,SW,229,0.0,0.0,73,0.00,,,0.00,Wunderground v.1.15,2013-09-20 20:29:00,
2013-09-20 16:30:00,80.6,71.5,29.92,SW,229,0.0,0.0,74,0.00,,,0.00,Wunderground v.1.15,2013-09-20 20:30:00,
2013-09-20 16:31:00,80.5,71.4,29.91,SW,229,0.0,0.0,74,0.00,,,0.00,Wunderground v.1.15,2013-09-20 20:31:00,
2013-09-20 16:34:00,80.4,71.3,29.91,SW,229,0.0,0.0,74,0.00,,,0.00,Wunderground v.1.15,2013-09-20 20:34:00,
2013-09-20 16:35:00,80.4,71.7,29.91,SW,229,0.0,0.0,75,0.00,,,0.00,Wunderground v.1.15,2013-09-20 20:35:00,
2013-09-20 16:37:00,80.4,70.9,29.91,SW,229,0.0,0.0,73,0.00,,,0.00,Wunderground v.1.15,2013-09-20 20:37:00,
2013-09-20 16:39:00,80.5,70.6,29.91,SW,229,0.0,0.0,72,0.00,,,0.00,Wunderground v.1.15,2013-09-20 20:39:00,
2013-09-20 16:40:00,80.5,71.0,29.91,SW,229,0.0,0.0,73,0.00,,,0.00,Wunderground v.1.15,2013-09-20 20:40:00,
2013-09-20 16:42:00,80.6,71.1,29.91,SW,229,0.0,0.0,73,0.00,,,0.00,Wunderground v.1.15,2013-09-20 20:42:00,
2013-09-20 16:43:00,80.6,71.1,29.91,SW,229,0.0,0.0,73,0.00,,,0.00,Wunderground v.1.15,2013-09-20 20:43:00,
2013-09-20 16:44:00,80.7,71.2,29.91,SW,230,0.0,0.0,73,0.00,,,0.00,Wunderground v.1.15,2013-09-20 20:44:00,
2013-09-20 16:45:00,80.7,70.4,29.91,SW,229,0.0,0.0,71,0.00,,,0.00,Wunderground v.1.15,2013-09-20 20:45:00,
2013-09-20 16:48:00,80.7,70.4,29.91,SW,229,0.0,0.0,71,0.00,,,0.00,Wunderground v.1.15,2013-09-20 20:48:00,
2013-09-20 16:49:00,80.7,70.0,29.91,SW,229,0.0,0.0,70,0.00,,,0.00,Wunderground v.1.15,2013-09-20 20:49:00,
2013-09-20 16:50:00,80.7,70.4,29.91,SW,229,0.0,0.0,71,0.00,,,0.00,Wunderground v.1.15,2013-09-20 20:50:00,
2013-09-20 16:51:00,80.7,70.8,29.91,SW,229,0.0,0.0,72,0.00,,,0.00,Wunderground v.1.15,2013-09-20 20:51:00,
2013-09-20 16:53:00,80.8,70.5,29.91,SW,229,0.0,0.0,71,0.00,,,0.00,Wunderground v.1.15,2013-09-20 20:53:00,
2013-09-20 16:54:00,80.9,70.6,29.91,SW,229,0.0,0.0,71,0.00,,,0.00,Wunderground v.1.15,2013-09-20 20:54:00,
2013-09-20 16:55:00,80.9,70.6,29.90,SW,229,0.0,0.0,71,0.00,,,0.00,Wunderground v.1.15,2013-09-20 20:55:00,
2013-09-20 16:56:00,81.0,70.7,29.90,SW,229,0.0,0.0,71,0.00,,,0.00,Wunderground v.1.15,2013-09-20 20:56:00,
2013-09-20 16:58:00,81.3,71.0,29.90,SW,229,0.0,0.0,71,0.00,,,0.00,Wunderground v.1.15,2013-09-20 20:58:00,
2013-09-20 16:59:00,81.5,69.5,29.90,SW,229,0.0,0.0,67,0.00,,,0.00,Wunderground v.1.15,2013-09-20 20:59:00,
2013-09-20 17:00:00,81.5,69.5,29.90,SW,229,0.0,0.0,67,0.00,,,0.00,Wunderground v.1.15,2013-09-20 21:00:00,
2013-09-20 17:02:00,81.7,68.8,29.90,SW,229,0.0,0.0,65,0.00,,,0.00,Wunderground v.1.15,2013-09-20 21:02:00,
2013-09-20 17:03:00,81.8,68.9,29.90,SW,229,0.0,0.0,65,0.00,,,0.00,Wunderground v.1.15,2013-09-20 21:03:00,
2013-09-20 17:04:00,81.8,70.6,29.90,SW,229,0.0,0.0,69,0.00,,,0.00,Wunderground v.1.15,2013-09-20 21:04:00,
2013-09-20 17:05:00,81.7,70.1,29.90,SW,229,0.0,0.0,68,0.00,,,0.00,Wunderground v.1.15,2013-09-20 21:05:00,
2013-09-20 17:08:00,81.5,70.3,29.90,SW,229,0.0,0.0,69,0.00,,,0.00,Wunderground v.1.15,2013-09-20 21:08:00,
2013-09-20 17:09:00,81.4,69.8,29.90,SW,229,0.0,0.0,68,0.00,,,0.00,Wunderground v.1.15,2013-09-20 21:09:00,
2013-09-20 17:10:00,81.3,69.7,29.90,SW,229,0.0,0.0,68,0.00,,,0.00,Wunderground v.1.15,2013-09-20 21:10:00,
2013-09-20 17:13:00,81.1,70.0,29.90,SW,229,0.0,0.0,69,0.00,,,0.00,Wunderground v.1.15,2013-09-20 21:13:00,
2013-09-20 17:14:00,81.1,70.0,29.90,SW,229,0.0,0.0,69,0.00,,,0.00,Wunderground v.1.15,2013-09-20 21:14:00,
2013-09-20 17:15:00,81.1,69.5,29.90,SW,229,0.0,0.0,68,0.00,,,0.00,Wunderground v.1.15,2013-09-20 21:15:00,
2013-09-20 17:16:00,81.0,69.4,29.90,SW,229,0.0,0.0,68,0.00,,,0.00,Wunderground v.1.15,2013-09-20 21:16:00,
2013-09-20 17:18:00,81.0,69.0,29.90,SW,229,0.0,0.0,67,0.00,,,0.00,Wunderground v.1.15,2013-09-20 21:18:00,
2013-09-20 17:19:00,80.9,68.9,29.90,SW,229,0.0,0.0,67,0.00,,,0.00,Wunderground v.1.15,2013-09-20 21:19:00,
2013-09-20 17:20:00,81.0,69.0,29.90,SW,229,0.0,0.0,67,0.00,,,0.00,Wunderground v.1.15,2013-09-20 21:20:00,
2013-09-20 17:21:00,81.0,69.4,29.90,SW,229,0.0,0.0,68,0.00,,,0.00,Wunderground v.1.15,2013-09-20 21:21:00,
2013-09-20 17:23:00,80.9,68.9,29.90,SW,219,0.0,0.0,67,0.00,,,0.00,Wunderground v.1.15,2013-09-20 21:23:00,
2013-09-20 17:24:00,80.9,68.9,29.90,SW,219,0.0,0.0,67,0.00,,,0.00,Wunderground v.1.15,2013-09-20 21:24:00,
2013-09-20 17:25:00,80.9,69.3,29.90,SW,219,0.0,0.0,68,0.00,,,0.00,Wunderground v.1.15,2013-09-20 21:25:00,
2013-09-20 17:26:00,80.9,68.9,29.90,SW,219,0.0,0.0,67,0.00,,,0.00,Wunderground v.1.15,2013-09-20 21:26:00,
2013-09-20 17:29:00,81.0,70.7,29.90,SW,219,0.0,0.0,71,0.00,,,0.00,Wunderground v.1.15,2013-09-20 21:29:00,
2013-09-20 17:30:00,81.0,70.7,29.90,SW,219,0.0,0.0,71,0.00,,,0.00,Wunderground v.1.15,2013-09-20 21:30:00,
2013-09-20 17:32:00,81.0,71.1,29.90,SW,219,0.0,0.0,72,0.00,,,0.00,Wunderground v.1.15,2013-09-20 21:32:00,
2013-09-20 17:34:00,81.0,70.7,29.90,SW,219,0.0,0.0,71,0.00,,,0.00,Wunderground v.1.15,2013-09-20 21:34:00,
2013-09-20 17:35:00,80.8,70.1,29.90,SW,219,0.0,0.0,70,0.00,,,0.00,Wunderground v.1.15,2013-09-20 21:35:00,
2013-09-20 17:36:00,80.8,70.1,29.90,SW,219,0.0,0.0,70,0.00,,,0.00,Wunderground v.1.15,2013-09-20 21:36:00,
2013-09-20 17:37:00,80.8,69.7,29.90,SW,219,0.0,0.0,69,0.00,,,0.00,Wunderground v.1.15,2013-09-20 21:37:00,
2013-09-20 17:39:00,80.8,70.1,29.90,SW,229,2.0,2.0,70,0.00,,,0.00,Wunderground v.1.15,2013-09-20 21:39:00,
2013-09-20 17:41:00,80.9,70.6,29.90,SW,229,0.0,0.0,71,0.00,,,0.00,Wunderground v.1.15,2013-09-20 21:41:00,
2013-09-20 17:42:00,80.9,70.2,29.90,SW,229,0.0,0.0,70,0.00,,,0.00,Wunderground v.1.15,2013-09-20 21:42:00,
2013-09-20 17:44:00,80.8,69.7,29.91,SW,229,0.0,0.0,69,0.00,,,0.00,Wunderground v.1.15,2013-09-20 21:44:00,
2013-09-20 17:46:00,80.7,70.0,29.91,SW,229,0.0,0.0,70,0.00,,,0.00,Wunderground v.1.15,2013-09-20 21:46:00,
2013-09-20 17:47:00,80.7,69.6,29.91,SW,230,0.0,0.0,69,0.00,,,0.00,Wunderground v.1.15,2013-09-20 21:47:00,
2013-09-20 17:49:00,80.5,70.2,29.91,SW,229,0.0,0.0,71,0.00,,,0.00,Wunderground v.1.15,2013-09-20 21:49:00,
2013-09-20 17:50:00,80.5,70.2,29.91,SW,229,0.0,0.0,71,0.00,,,0.00,Wunderground v.1.15,2013-09-20 21:50:00,
2013-09-20 17:51:00,80.4,69.3,29.91,SW,229,0.0,0.0,69,0.00,,,0.00,Wunderground v.1.15,2013-09-20 21:51:00,
2013-09-20 17:52:00,80.2,68.2,29.90,SW,229,0.0,0.0,67,0.00,,,0.00,Wunderground v.1.15,2013-09-20 21:52:00,
2013-09-20 17:54:00,80.1,68.2,29.91,SW,229,0.0,1.0,67,0.00,,,0.00,Wunderground v.1.15,2013-09-20 21:54:00,
2013-09-20 17:56:00,80.1,68.6,29.90,SW,229,0.0,1.0,68,0.00,,,0.00,Wunderground v.1.15,2013-09-20 21:56:00,
2013-09-20 17:57:00,80.1,68.6,29.90,SW,229,0.0,1.0,68,0.00,,,0.00,Wunderground v.1.15,2013-09-20 21:57:00,
2013-09-20 18:00:00,80.1,68.6,29.90,SW,229,0.0,0.0,68,0.00,,,0.00,Wunderground v.1.15,2013-09-20 22:00:00,
2013-09-20 18:01:00,80.0,68.1,29.90,SW,229,0.0,0.0,67,0.00,,,0.00,Wunderground v.1.15,2013-09-20 22:01:00,
2013-09-20 18:02:00,80.1,68.2,29.90,SW,229,0.0,0.0,67,0.00,,,0.00,Wunderground v.1.15,2013-09-20 22:02:00,
2013-09-20 18:03:00,80.1,69.0,29.90,SW,229,0.0,0.0,69,0.00,,,0.00,Wunderground v.1.15,2013-09-20 22:03:00,
2013-09-20 18:05:00,80.2,70.4,29.90,SW,229,0.0,0.0,72,0.00,,,0.00,Wunderground v.1.15,2013-09-20 22:05:00,
2013-09-20 18:06:00,80.2,70.8,29.90,SW,229,0.0,0.0,73,0.00,,,0.00,Wunderground v.1.15,2013-09-20 22:06:00,
2013-09-20 18:07:00,80.2,70.8,29.90,SW,229,0.0,0.0,73,0.00,,,0.00,Wunderground v.1.15,2013-09-20 22:07:00,
2013-09-20 18:08:00,80.1,70.3,29.90,SW,229,0.0,0.0,72,0.00,,,0.00,Wunderground v.1.15,2013-09-20 22:08:00,
2013-09-20 18:10:00,80.0,70.2,29.90,SW,230,0.0,0.0,72,0.00,,,0.00,Wunderground v.1.15,2013-09-20 22:10:00,
2013-09-20 18:11:00,79.9,70.5,29.90,SW,229,0.0,0.0,73,0.00,,,0.00,Wunderground v.1.15,2013-09-20 22:11:00,
2013-09-20 18:12:00,79.8,70.4,29.90,SW,230,0.0,0.0,73,0.00,,,0.00,Wunderground v.1.15,2013-09-20 22:12:00,
2013-09-20 18:15:00,79.5,70.1,29.90,SW,229,0.0,0.0,73,0.00,,,0.00,Wunderground v.1.15,2013-09-20 22:15:00,
2013-09-20 18:17:00,79.4,70.8,29.90,SW,230,0.0,0.0,75,0.00,,,0.00,Wunderground v.1.15,2013-09-20 22:17:00,
2013-09-20 18:20:00,79.0,70.4,29.90,SW,229,0.0,0.0,75,0.00,,,0.00,Wunderground v.1.15,2013-09-20 22:20:00,
2013-09-20 18:22:00,78.7,70.5,29.90,SW,229,0.0,0.0,76,0.00,,,0.00,Wunderground v.1.15,2013-09-20 22:22:00,
2013-09-20 18:25:00,78.5,70.7,29.91,SW,229,0.0,0.0,77,0.00,,,0.00,Wunderground v.1.15,2013-09-20 22:25:00,
2013-09-20 18:26:00,78.4,70.6,29.91,SW,229,0.0,0.0,77,0.00,,,0.00,Wunderground v.1.15,2013-09-20 22:26:00,
2013-09-20 18:27:00,78.2,70.4,29.91,SW,229,0.0,0.0,77,0.00,,,0.00,Wunderground v.1.15,2013-09-20 22:27:00,
2013-09-20 18:30:00,77.8,70.0,29.91,SW,229,0.0,0.0,77,0.00,,,0.00,Wunderground v.1.15,2013-09-20 22:30:00,
2013-09-20 18:31:00,77.8,70.0,29.91,SW,229,0.0,0.0,77,0.00,,,0.00,Wunderground v.1.15,2013-09-20 22:31:00,
2013-09-20 18:32:00,77.6,70.2,29.91,SW,229,0.0,0.0,78,0.00,,,0.00,Wunderground v.1.15,2013-09-20 22:32:00,
2013-09-20 18:33:00,77.6,70.2,29.91,SW,229,0.0,0.0,78,0.00,,,0.00,Wunderground v.1.15,2013-09-20 22:33:00,
2013-09-20 18:35:00,77.4,70.4,29.91,SW,230,0.0,0.0,79,0.00,,,0.00,Wunderground v.1.15,2013-09-20 22:35:00,
2013-09-20 18:36:00,77.4,70.4,29.91,SW,229,0.0,0.0,79,0.00,,,0.00,Wunderground v.1.15,2013-09-20 22:36:00,
2013-09-20 18:38:00,77.3,70.3,29.91,SW,229,0.0,0.0,79,0.00,,,0.00,Wunderground v.1.15,2013-09-20 22:38:00,
2013-09-20 18:40:00,77.1,70.1,29.91,SW,229,0.0,0.0,79,0.00,,,0.00,Wunderground v.1.15,2013-09-20 22:40:00,
2013-09-20 18:41:00,77.1,70.5,29.91,SW,229,0.0,0.0,80,0.00,,,0.00,Wunderground v.1.15,2013-09-20 22:41:00,
2013-09-20 18:43:00,77.0,70.4,29.91,SW,229,0.0,0.0,80,0.00,,,0.00,Wunderground v.1.15,2013-09-20 22:43:00,
2013-09-20 18:46:00,76.9,70.6,29.91,SW,229,0.0,0.0,81,0.00,,,0.00,Wunderground v.1.15,2013-09-20 22:46:00,
2013-09-20 18:48:00,76.8,70.5,29.92,SW,229,0.0,0.0,81,0.00,,,0.00,Wunderground v.1.15,2013-09-20 22:48:00,
2013-09-20 18:49:00,76.8,70.5,29.92,SW,229,0.0,0.0,81,0.00,,,0.00,Wunderground v.1.15,2013-09-20 22:49:00,
2013-09-20 18:51:00,76.8,70.9,29.92,SW,229,0.0,0.0,82,0.00,,,0.00,Wunderground v.1.15,2013-09-20 22:51:00,
2013-09-20 18:54:00,76.7,70.8,29.92,SW,229,0.0,0.0,82,0.00,,,0.00,Wunderground v.1.15,2013-09-20 22:54:00,
2013-09-20 18:56:00,76.5,70.9,29.92,SW,229,0.0,0.0,83,0.00,,,0.00,Wunderground v.1.15,2013-09-20 22:56:00,
2013-09-20 18:59:00,76.1,70.2,29.92,SW,230,0.0,0.0,82,0.00,,,0.00,Wunderground v.1.15,2013-09-20 22:59:00,
2013-09-20 19:00:00,76.0,70.5,29.92,SW,229,0.0,0.0,83,0.00,,,0.00,Wunderground v.1.15,2013-09-20 23:00:00,
2013-09-20 19:01:00,75.9,70.0,29.92,SW,229,0.0,0.0,82,0.00,,,0.00,Wunderground v.1.15,2013-09-20 23:01:00,
2013-09-20 19:02:00,75.8,70.3,29.92,SW,229,2.0,2.0,83,0.00,,,0.00,Wunderground v.1.15,2013-09-20 23:02:00,
2013-09-20 19:04:00,75.6,69.7,29.92,ENE,76,1.0,4.0,82,0.00,,,0.00,Wunderground v.1.15,2013-09-20 23:04:00,
2013-09-20 19:05:00,75.5,69.3,29.92,ENE,76,0.0,4.0,81,0.00,,,0.00,Wunderground v.1.15,2013-09-20 23:05:00,
2013-09-20 19:06:00,75.3,69.1,29.92,ENE,77,0.0,4.0,81,0.00,,,0.00,Wunderground v.1.15,2013-09-20 23:06:00,
2013-09-20 19:07:00,75.3,69.1,29.92,WNW,299,3.0,4.0,81,0.00,,,0.00,Wunderground v.1.15,2013-09-20 23:07:00,
2013-09-20 19:09:00,75.1,68.9,29.93,NNE,21,0.0,4.0,81,0.00,,,0.00,Wunderground v.1.15,2013-09-20 23:09:00,
2013-09-20 19:10:00,75.1,69.2,29.93,NNE,25,0.0,0.0,82,0.00,,,0.00,Wunderground v.1.15,2013-09-20 23:10:00,
2013-09-20 19:12:00,74.9,69.0,29.92,NNE,15,0.0,0.0,82,0.00,,,0.00,Wunderground v.1.15,2013-09-20 23:12:00,
2013-09-20 19:14:00,74.7,68.5,29.93,NNE,14,0.0,1.0,81,0.00,,,0.00,Wunderground v.1.15,2013-09-20 23:14:00,
2013-09-20 19:15:00,74.6,68.7,29.92,ENE,75,0.0,1.0,82,0.00,,,0.00,Wunderground v.1.15,2013-09-20 23:15:00,
2013-09-20 19:17:00,74.3,68.4,29.93,ENE,75,0.0,1.0,82,0.00,,,0.00,Wunderground v.1.15,2013-09-20 23:17:00,
2013-09-20 19:18:00,74.3,68.4,29.93,ENE,75,0.0,1.0,82,0.00,,,0.00,Wunderground v.1.15,2013-09-20 23:18:00,
2013-09-20 19:19:00,74.2,68.3,29.93,ENE,75,0.0,1.0,82,0.00,,,0.00,Wunderground v.1.15,2013-09-20 23:19:00,
2013-09-20 19:20:00,74.1,68.3,29.93,ENE,75,1.0,1.0,82,0.00,,,0.00,Wunderground v.1.15,2013-09-20 23:20:00,
2013-09-20 19:22:00,73.9,68.4,29.93,ENE,75,0.0,1.0,83,0.00,,,0.00,Wunderground v.1.15,2013-09-20 23:22:00,
2013-09-20 19:23:00,73.8,68.3,29.93,ENE,75,0.0,1.0,83,0.00,,,0.00,Wunderground v.1.15,2013-09-20 23:23:00,
2013-09-20 19:25:00,73.8,68.3,29.93,ENE,75,0.0,1.0,83,0.00,,,0.00,Wunderground v.1.15,2013-09-20 23:25:00,
2013-09-20 19:26:00,73.7,68.2,29.93,ENE,75,0.0,1.0,83,0.00,,,0.00,Wunderground v.1.15,2013-09-20 23:26:00,
2013-09-20 19:27:00,73.6,68.5,29.93,ENE,75,0.0,1.0,84,0.00,,,0.00,Wunderground v.1.15,2013-09-20 23:27:00,
2013-09-20 19:28:00,73.5,68.0,29.93,North,356,0.0,1.0,83,0.00,,,0.00,Wunderground v.1.15,2013-09-20 23:28:00,
2013-09-20 19:30:00,73.4,67.9,29.93,North,355,0.0,0.0,83,0.00,,,0.00,Wunderground v.1.15,2013-09-20 23:30:00,
2013-09-20 19:31:00,73.3,68.2,29.93,North,355,0.0,0.0,84,0.00,,,0.00,Wunderground v.1.15,2013-09-20 23:31:00,
2013-09-20 19:32:00,73.2,67.7,29.92,North,355,0.0,0.0,83,0.00,,,0.00,Wunderground v.1.15,2013-09-20 23:32:00,
2013-09-20 19:34:00,73.1,68.0,29.92,North,355,0.0,0.0,84,0.00,,,0.00,Wunderground v.1.15,2013-09-20 23:34:00,
2013-09-20 19:35:00,73.1,68.0,29.93,North,355,0.0,0.0,84,0.00,,,0.00,Wunderground v.1.15,2013-09-20 23:35:00,
2013-09-20 19:37:00,72.9,68.1,29.93,North,357,0.0,0.0,85,0.00,,,0.00,Wunderground v.1.15,2013-09-20 23:37:00,
2013-09-20 19:39:00,72.8,68.0,29.93,North,357,0.0,0.0,85,0.00,,,0.00,Wunderground v.1.15,2013-09-20 23:39:00,
2013-09-20 19:40:00,72.7,67.9,29.93,North,356,0.0,0.0,85,0.00,,,0.00,Wunderground v.1.15,2013-09-20 23:40:00,
2013-09-20 19:41:00,72.7,67.9,29.93,North,355,0.0,0.0,85,0.00,,,0.00,Wunderground v.1.15,2013-09-20 23:41:00,
2013-09-20 19:42:00,72.6,67.8,29.93,North,355,0.0,1.0,85,0.00,,,0.00,Wunderground v.1.15,2013-09-20 23:42:00,
2013-09-20 19:44:00,72.4,67.6,29.93,North,355,0.0,1.0,85,0.00,,,0.00,Wunderground v.1.15,2013-09-20 23:44:00,
2013-09-20 19:46:00,72.3,67.5,29.93,North,355,0.0,1.0,85,0.00,,,0.00,Wunderground v.1.15,2013-09-20 23:46:00,
2013-09-20 19:47:00,72.2,67.8,29.93,North,355,0.0,1.0,86,0.00,,,0.00,Wunderground v.1.15,2013-09-20 23:47:00,
2013-09-20 19:49:00,72.1,67.7,29.93,North,355,0.0,1.0,86,0.00,,,0.00,Wunderground v.1.15,2013-09-20 23:49:00,
2013-09-20 19:51:00,72.0,67.6,29.93,North,356,0.0,0.0,86,0.00,,,0.00,Wunderground v.1.15,2013-09-20 23:51:00,
2013-09-20 19:52:00,71.8,67.7,29.93,North,356,0.0,0.0,87,0.00,,,0.00,Wunderground v.1.15,2013-09-20 23:52:00,
2013-09-20 19:53:00,71.8,67.7,29.93,North,355,0.0,0.0,87,0.00,,,0.00,Wunderground v.1.15,2013-09-20 23:53:00,
2013-09-20 19:54:00,71.7,67.6,29.93,North,355,0.0,0.0,87,0.00,,,0.00,Wunderground v.1.15,2013-09-20 23:54:00,
2013-09-20 19:56:00,71.6,67.5,29.93,North,355,0.0,0.0,87,0.00,,,0.00,Wunderground v.1.15,2013-09-20 23:56:00,
2013-09-20 19:58:00,71.5,67.8,29.93,North,355,0.0,0.0,88,0.00,,,0.00,Wunderground v.1.15,2013-09-20 23:58:00,
2013-09-20 20:00:00,71.3,67.6,29.93,North,355,0.0,0.0,88,0.00,,,0.00,Wunderground v.1.15,2013-09-21 00:00:00,
2013-09-20 20:01:00,71.2,67.5,29.93,North,355,0.0,0.0,88,0.00,,,0.00,Wunderground v.1.15,2013-09-21 00:01:00,
2013-09-20 20:03:00,71.2,67.5,29.93,North,356,0.0,0.0,88,0.00,,,0.00,Wunderground v.1.15,2013-09-21 00:03:00,
2013-09-20 20:06:00,71.0,67.3,29.93,North,356,0.0,0.0,88,0.00,,,0.00,Wunderground v.1.15,2013-09-21 00:06:00,
2013-09-20 20:07:00,71.0,67.3,29.93,North,355,0.0,0.0,88,0.00,,,0.00,Wunderground v.1.15,2013-09-21 00:07:00,
2013-09-20 20:08:00,71.0,67.6,29.93,North,355,0.0,0.0,89,0.00,,,0.00,Wunderground v.1.15,2013-09-21 00:08:00,
2013-09-20 20:09:00,70.9,67.5,29.93,NNW,347,0.0,0.0,89,0.00,,,0.00,Wunderground v.1.15,2013-09-21 00:09:00,
2013-09-20 20:11:00,70.8,67.4,29.94,NNW,347,0.0,0.0,89,0.00,,,0.00,Wunderground v.1.15,2013-09-21 00:11:00,
2013-09-20 20:12:00,70.8,67.4,29.94,NNW,347,0.0,0.0,89,0.00,,,0.00,Wunderground v.1.15,2013-09-21 00:12:00,
2013-09-20 20:14:00,70.8,67.4,29.94,North,349,0.0,0.0,89,0.00,,,0.00,Wunderground v.1.15,2013-09-21 00:14:00,
2013-09-20 20:15:00,70.7,67.3,29.94,North,349,0.0,0.0,89,0.00,,,0.00,Wunderground v.1.15,2013-09-21 00:15:00,
2013-09-20 20:16:00,70.7,67.6,29.94,North,349,0.0,0.0,90,0.00,,,0.00,Wunderground v.1.15,2013-09-21 00:16:00,
2013-09-20 20:17:00,70.6,67.5,29.94,North,349,0.0,0.0,90,0.00,,,0.00,Wunderground v.1.15,2013-09-21 00:17:00,
2013-09-20 20:19:00,70.6,67.5,29.94,North,349,0.0,0.0,90,0.00,,,0.00,Wunderground v.1.15,2013-09-21 00:19:00,
2013-09-20 20:21:00,70.5,67.4,29.94,NNE,29,0.0,2.0,90,0.00,,,0.00,Wunderground v.1.15,2013-09-21 00:21:00,
2013-09-20 20:22:00,70.4,67.3,29.94,NNE,29,0.0,2.0,90,0.00,,,0.00,Wunderground v.1.15,2013-09-21 00:22:00,
2013-09-20 20:24:00,70.4,67.6,29.94,NNE,29,0.0,2.0,91,0.00,,,0.00,Wunderground v.1.15,2013-09-21 00:24:00,
2013-09-20 20:27:00,70.3,67.5,29.94,NNE,28,0.0,2.0,91,0.00,,,0.00,Wunderground v.1.15,2013-09-21 00:27:00,
2013-09-20 20:29:00,70.2,67.4,29.94,NNE,29,0.0,2.0,91,0.00,,,0.00,Wunderground v.1.15,2013-09-21 00:29:00,
2013-09-20 20:32:00,70.0,67.6,29.94,NNE,28,0.0,0.0,92,0.00,,,0.00,Wunderground v.1.15,2013-09-21 00:32:00,
2013-09-20 20:33:00,70.0,67.6,29.94,NNE,29,0.0,0.0,92,0.00,,,0.00,Wunderground v.1.15,2013-09-21 00:33:00,
2013-09-20 20:34:00,69.9,67.5,29.94,NNE,27,0.0,0.0,92,0.00,,,0.00,Wunderground v.1.15,2013-09-21 00:34:00,
2013-09-20 20:37:00,69.9,67.5,29.94,NNE,29,0.0,0.0,92,0.00,,,0.00,Wunderground v.1.15,2013-09-21 00:37:00,
2013-09-20 20:38:00,69.9,67.5,29.94,NNE,29,0.0,0.0,92,0.00,,,0.00,Wunderground v.1.15,2013-09-21 00:38:00,
2013-09-20 20:39:00,69.9,67.5,29.94,NNE,29,0.0,0.0,92,0.00,,,0.00,Wunderground v.1.15,2013-09-21 00:39:00,
2013-09-20 20:42:00,69.8,67.4,29.94,NNE,28,0.0,0.0,92,0.00,,,0.00,Wunderground v.1.15,2013-09-21 00:42:00,
2013-09-20 20:43:00,69.8,67.4,29.94,NNE,28,0.0,0.0,92,0.00,,,0.00,Wunderground v.1.15,2013-09-21 00:43:00,
2013-09-20 20:44:00,69.8,67.4,29.94,NNE,29,0.0,0.0,92,0.00,,,0.00,Wunderground v.1.15,2013-09-21 00:44:00,
2013-09-20 20:48:00,69.7,67.6,29.93,NNE,29,0.0,0.0,93,0.00,,,0.00,Wunderground v.1.15,2013-09-21 00:48:00,
2013-09-20 20:49:00,69.7,67.6,29.93,NNE,28,0.0,0.0,93,0.00,,,0.00,Wunderground v.1.15,2013-09-21 00:49:00,
2013-09-20 20:53:00,69.6,67.5,29.94,WNW,287,0.0,1.0,93,0.00,,,0.00,Wunderground v.1.15,2013-09-21 00:53:00,
2013-09-20 20:54:00,69.6,67.5,29.94,WNW,286,0.0,1.0,93,0.00,,,0.00,Wunderground v.1.15,2013-09-21 00:54:00,
2013-09-20 20:55:00,69.6,67.5,29.94,WNW,297,0.0,1.0,93,0.00,,,0.00,Wunderground v.1.15,2013-09-21 00:55:00,
2013-09-20 20:58:00,69.5,67.4,29.94,WNW,297,0.0,1.0,93,0.00,,,0.00,Wunderground v.1.15,2013-09-21 00:58:00,
2013-09-20 20:59:00,69.5,67.4,29.94,WNW,297,0.0,1.0,93,0.00,,,0.00,Wunderground v.1.15,2013-09-21 00:59:00,
2013-09-20 21:00:00,69.5,67.4,29.93,WNW,297,0.0,0.0,93,0.00,,,0.00,Wunderground v.1.15,2013-09-21 01:00:00,
2013-09-20 21:03:00,69.5,67.4,29.93,WNW,297,0.0,0.0,93,0.00,,,0.00,Wunderground v.1.15,2013-09-21 01:03:00,
2013-09-20 21:04:00,69.4,67.3,29.93,NNE,28,0.0,1.0,93,0.00,,,0.00,Wunderground v.1.15,2013-09-21 01:04:00,
2013-09-20 21:05:00,69.4,67.6,29.93,NNE,29,0.0,1.0,94,0.00,,,0.00,Wunderground v.1.15,2013-09-21 01:05:00,
2013-09-20 21:08:00,69.4,67.6,29.93,NNE,29,0.0,1.0,94,0.00,,,0.00,Wunderground v.1.15,2013-09-21 01:08:00,
2013-09-20 21:10:00,69.4,67.6,29.93,West,276,0.0,0.0,94,0.00,,,0.00,Wunderground v.1.15,2013-09-21 01:10:00,
2013-09-20 21:11:00,69.3,67.5,29.93,West,276,0.0,0.0,94,0.00,,,0.00,Wunderground v.1.15,2013-09-21 01:11:00,
2013-09-20 21:13:00,69.3,67.5,29.93,West,276,0.0,0.0,94,0.00,,,0.00,Wunderground v.1.15,2013-09-21 01:13:00,
2013-09-20 21:15:00,69.3,67.5,29.93,West,275,0.0,0.0,94,0.00,,,0.00,Wunderground v.1.15,2013-09-21 01:15:00,
2013-09-20 21:16:00,69.3,67.5,29.93,West,276,0.0,0.0,94,0.00,,,0.00,Wunderground v.1.15,2013-09-21 01:16:00,
2013-09-20 21:18:00,69.3,67.5,29.93,West,275,0.0,0.0,94,0.00,,,0.00,Wunderground v.1.15,2013-09-21 01:18:00,
2013-09-20 21:21:00,69.2,67.4,29.93,West,275,0.0,0.0,94,0.00,,,0.00,Wunderground v.1.15,2013-09-21 01:21:00,
2013-09-20 21:23:00,69.2,67.4,29.93,West,276,0.0,0.0,94,0.00,,,0.00,Wunderground v.1.15,2013-09-21 01:23:00,
2013-09-20 21:24:00,69.2,67.4,29.93,West,276,0.0,0.0,94,0.00,,,0.00,Wunderground v.1.15,2013-09-21 01:24:00,
2013-09-20 21:26:00,69.2,67.4,29.93,West,276,0.0,0.0,94,0.00,,,0.00,Wunderground v.1.15,2013-09-21 01:26:00,
2013-09-20 21:28:00,69.1,67.3,29.93,West,276,0.0,0.0,94,0.00,,,0.00,Wunderground v.1.15,2013-09-21 01:28:00,
2013-09-20 21:29:00,69.1,67.3,29.93,West,275,0.0,0.0,94,0.00,,,0.00,Wunderground v.1.15,2013-09-21 01:29:00,
2013-09-20 21:31:00,69.1,67.3,29.93,WNW,291,0.0,1.0,94,0.00,,,0.00,Wunderground v.1.15,2013-09-21 01:31:00,
2013-09-20 21:34:00,69.1,67.3,29.93,WNW,291,0.0,1.0,94,0.00,,,0.00,Wunderground v.1.15,2013-09-21 01:34:00,
2013-09-20 21:36:00,69.1,67.3,29.93,WNW,291,0.0,1.0,94,0.00,,,0.00,Wunderground v.1.15,2013-09-21 01:36:00,
2013-09-20 21:39:00,69.0,67.2,29.93,WNW,292,0.0,1.0,94,0.00,,,0.00,Wunderground v.1.15,2013-09-21 01:39:00,
2013-09-20 21:41:00,68.9,67.4,29.93,WNW,291,0.0,0.0,95,0.00,,,0.00,Wunderground v.1.15,2013-09-21 01:41:00,
2013-09-20 21:43:00,68.8,67.3,29.93,WNW,291,0.0,0.0,95,0.00,,,0.00,Wunderground v.1.15,2013-09-21 01:43:00,
2013-09-20 21:45:00,68.8,67.3,29.93,WNW,291,0.0,0.0,95,0.00,,,0.00,Wunderground v.1.15,2013-09-21 01:45:00,
2013-09-20 21:46:00,68.7,67.2,29.93,WNW,293,0.0,0.0,95,0.00,,,0.00,Wunderground v.1.15,2013-09-21 01:46:00,
2013-09-20 21:47:00,68.7,67.2,29.93,WNW,291,0.0,0.0,95,0.00,,,0.00,Wunderground v.1.15,2013-09-21 01:47:00,
2013-09-20 21:49:00,68.7,67.2,29.92,WNW,291,0.0,0.0,95,0.00,,,0.00,Wunderground v.1.15,2013-09-21 01:49:00,
2013-09-20 21:50:00,68.6,67.1,29.92,WNW,291,0.0,0.0,95,0.00,,,0.00,Wunderground v.1.15,2013-09-21 01:50:00,
2013-09-20 21:52:00,68.5,67.0,29.92,WNW,292,0.0,0.0,95,0.00,,,0.00,Wunderground v.1.15,2013-09-21 01:52:00,
2013-09-20 21:54:00,68.5,67.0,29.92,WNW,291,0.0,0.0,95,0.00,,,0.00,Wunderground v.1.15,2013-09-21 01:54:00,
2013-09-20 21:55:00,68.4,66.9,29.92,WNW,291,0.0,0.0,95,0.00,,,0.00,Wunderground v.1.15,2013-09-21 01:55:00,
2013-09-20 21:57:00,68.4,66.9,29.92,WNW,291,0.0,0.0,95,0.00,,,0.00,Wunderground v.1.15,2013-09-21 01:57:00,
2013-09-20 21:58:00,68.3,66.8,29.92,WNW,291,0.0,0.0,95,0.00,,,0.00,Wunderground v.1.15,2013-09-21 01:58:00,
2013-09-20 21:59:00,68.3,66.8,29.92,WNW,291,0.0,0.0,95,0.00,,,0.00,Wunderground v.1.15,2013-09-21 01:59:00,
2013-09-20 22:01:00,68.3,66.8,29.92,WNW,291,0.0,0.0,95,0.00,,,0.00,Wunderground v.1.15,2013-09-21 02:01:00,
2013-09-20 22:02:00,68.2,66.7,29.92,WNW,291,0.0,0.0,95,0.00,,,0.00,Wunderground v.1.15,2013-09-21 02:02:00,
2013-09-20 22:04:00,68.2,67.0,29.92,WNW,291,0.0,0.0,96,0.00,,,0.00,Wunderground v.1.15,2013-09-21 02:04:00,
2013-09-20 22:06:00,68.1,66.9,29.92,WNW,291,0.0,0.0,96,0.00,,,0.00,Wunderground v.1.15,2013-09-21 02:06:00,
2013-09-20 22:07:00,68.0,66.8,29.92,WNW,291,0.0,0.0,96,0.00,,,0.00,Wunderground v.1.15,2013-09-21 02:07:00,
2013-09-20 22:09:00,68.0,66.8,29.92,WNW,291,0.0,0.0,96,0.00,,,0.00,Wunderground v.1.15,2013-09-21 02:09:00,
2013-09-20 22:11:00,67.9,66.7,29.92,WNW,291,0.0,0.0,96,0.00,,,0.00,Wunderground v.1.15,2013-09-21 02:11:00,
2013-09-20 22:12:00,67.8,66.6,29.92,WNW,292,0.0,0.0,96,0.00,,,0.00,Wunderground v.1.15,2013-09-21 02:12:00,
2013-09-20 22:13:00,67.8,66.6,29.92,WNW,291,0.0,0.0,96,0.00,,,0.00,Wunderground v.1.15,2013-09-21 02:13:00,
2013-09-20 22:14:00,67.8,66.6,29.92,WNW,291,0.0,0.0,96,0.00,,,0.00,Wunderground v.1.15,2013-09-21 02:14:00,
2013-09-20 22:15:00,67.8,66.6,29.92,WNW,291,0.0,0.0,96,0.00,,,0.00,Wunderground v.1.15,2013-09-21 02:15:00,
2013-09-20 22:16:00,67.7,66.5,29.92,WNW,291,0.0,0.0,96,0.00,,,0.00,Wunderground v.1.15,2013-09-21 02:16:00,
2013-09-20 22:17:00,67.6,66.4,29.92,WNW,291,0.0,0.0,96,0.00,,,0.00,Wunderground v.1.15,2013-09-21 02:17:00,
2013-09-20 22:19:00,67.6,66.4,29.92,WNW,291,0.0,0.0,96,0.00,,,0.00,Wunderground v.1.15,2013-09-21 02:19:00,
2013-09-20 22:20:00,67.5,66.3,29.92,WNW,291,0.0,0.0,96,0.00,,,0.00,Wunderground v.1.15,2013-09-21 02:20:00,
2013-09-20 22:21:00,67.5,66.3,29.92,WNW,291,0.0,0.0,96,0.00,,,0.00,Wunderground v.1.15,2013-09-21 02:21:00,
2013-09-20 22:22:00,67.5,66.3,29.92,WNW,291,0.0,0.0,96,0.00,,,0.00,Wunderground v.1.15,2013-09-21 02:22:00,
2013-09-20 22:24:00,67.4,66.2,29.92,WNW,291,0.0,0.0,96,0.00,,,0.00,Wunderground v.1.15,2013-09-21 02:24:00,
2013-09-20 22:25:00,67.4,66.2,29.92,WNW,291,0.0,0.0,96,0.00,,,0.00,Wunderground v.1.15,2013-09-21 02:25:00,
2013-09-20 22:26:00,67.4,66.2,29.92,WNW,291,0.0,0.0,96,0.00,,,0.00,Wunderground v.1.15,2013-09-21 02:26:00,
2013-09-20 22:27:00,67.4,66.2,29.92,WNW,291,0.0,0.0,96,0.00,,,0.00,Wunderground v.1.15,2013-09-21 02:27:00,
2013-09-20 22:30:00,67.4,66.2,29.92,WNW,290,0.0,0.0,96,0.00,,,0.00,Wunderground v.1.15,2013-09-21 02:30:00,
2013-09-20 22:31:00,67.5,66.6,29.92,WNW,291,0.0,1.0,97,0.00,,,0.00,Wunderground v.1.15,2013-09-21 02:31:00,
2013-09-20 22:33:00,67.5,66.6,29.92,WNW,291,0.0,1.0,97,0.00,,,0.00,Wunderground v.1.15,2013-09-21 02:33:00,
2013-09-20 22:35:00,67.5,66.6,29.92,WNW,291,0.0,1.0,97,0.00,,,0.00,Wunderground v.1.15,2013-09-21 02:35:00,
2013-09-20 22:36:00,67.6,66.7,29.92,WNW,291,0.0,1.0,97,0.00,,,0.00,Wunderground v.1.15,2013-09-21 02:36:00,
2013-09-20 22:38:00,67.6,66.7,29.93,WNW,292,0.0,1.0,97,0.00,,,0.00,Wunderground v.1.15,2013-09-21 02:38:00,
2013-09-20 22:40:00,67.6,66.7,29.93,WNW,291,0.0,0.0,97,0.00,,,0.00,Wunderground v.1.15,2013-09-21 02:40:00,
2013-09-20 22:41:00,67.7,66.8,29.93,WNW,291,0.0,0.0,97,0.00,,,0.00,Wunderground v.1.15,2013-09-21 02:41:00,
2013-09-20 22:42:00,67.7,66.8,29.93,WNW,291,0.0,0.0,97,0.00,,,0.00,Wunderground v.1.15,2013-09-21 02:42:00,
2013-09-20 22:43:00,67.7,66.8,29.93,WNW,291,0.0,0.0,97,0.00,,,0.00,Wunderground v.1.15,2013-09-21 02:43:00,
2013-09-20 22:45:00,67.8,66.9,29.92,WNW,291,0.0,0.0,97,0.00,,,0.00,Wunderground v.1.15,2013-09-21 02:45:00,
2013-09-20 22:46:00,67.8,66.9,29.92,WNW,291,0.0,0.0,97,0.00,,,0.00,Wunderground v.1.15,2013-09-21 02:46:00,
2013-09-20 22:47:00,67.9,67.0,29.92,WNW,291,0.0,0.0,97,0.00,,,0.00,Wunderground v.1.15,2013-09-21 02:47:00,
2013-09-20 22:48:00,67.9,67.0,29.92,WNW,291,0.0,1.0,97,0.00,,,0.00,Wunderground v.1.15,2013-09-21 02:48:00,
2013-09-20 22:50:00,67.9,67.0,29.92,WNW,291,0.0,0.0,97,0.00,,,0.00,Wunderground v.1.15,2013-09-21 02:50:00,
2013-09-20 22:51:00,67.9,67.0,29.92,WNW,291,0.0,0.0,97,0.00,,,0.00,Wunderground v.1.15,2013-09-21 02:51:00,
2013-09-20 22:52:00,67.9,67.0,29.92,WNW,292,0.0,0.0,97,0.00,,,0.00,Wunderground v.1.15,2013-09-21 02:52:00,
2013-09-20 22:53:00,68.0,67.1,29.92,WNW,291,0.0,1.0,97,0.00,,,0.00,Wunderground v.1.15,2013-09-21 02:53:00,
2013-09-20 22:56:00,68.0,67.1,29.92,WNW,291,0.0,1.0,97,0.00,,,0.00,Wunderground v.1.15,2013-09-21 02:56:00,
2013-09-20 22:57:00,68.0,67.1,29.92,WNW,292,0.0,1.0,97,0.00,,,0.00,Wunderground v.1.15,2013-09-21 02:57:00,
2013-09-20 22:59:00,68.1,67.2,29.92,WNW,291,0.0,1.0,97,0.00,,,0.00,Wunderground v.1.15,2013-09-21 02:59:00,
2013-09-20 23:01:00,68.1,67.2,29.92,WNW,291,0.0,0.0,97,0.00,,,0.00,Wunderground v.1.15,2013-09-21 03:01:00,
2013-09-20 23:02:00,68.1,67.2,29.92,WNW,291,0.0,0.0,97,0.00,,,0.00,Wunderground v.1.15,2013-09-21 03:02:00,
2013-09-20 23:03:00,68.1,67.2,29.92,WNW,292,0.0,0.0,97,0.00,,,0.00,Wunderground v.1.15,2013-09-21 03:03:00,
2013-09-20 23:04:00,68.2,67.3,29.92,WNW,291,0.0,0.0,97,0.00,,,0.00,Wunderground v.1.15,2013-09-21 03:04:00,
2013-09-20 23:06:00,68.2,67.3,29.92,WNW,291,0.0,0.0,97,0.00,,,0.00,Wunderground v.1.15,2013-09-21 03:06:00,
2013-09-20 23:07:00,68.2,67.3,29.92,WNW,291,0.0,0.0,97,0.00,,,0.00,Wunderground v.1.15,2013-09-21 03:07:00,
2013-09-20 23:08:00,68.2,67.3,29.92,WNW,291,0.0,0.0,97,0.00,,,0.00,Wunderground v.1.15,2013-09-21 03:08:00,
2013-09-20 23:09:00,68.3,67.4,29.92,WNW,291,0.0,0.0,97,0.00,,,0.00,Wunderground v.1.15,2013-09-21 03:09:00,
2013-09-20 23:11:00,68.3,67.4,29.92,WNW,291,0.0,0.0,97,0.00,,,0.00,Wunderground v.1.15,2013-09-21 03:11:00,
2013-09-20 23:13:00,68.3,67.4,29.92,WNW,291,0.0,0.0,97,0.00,,,0.00,Wunderground v.1.15,2013-09-21 03:13:00,
2013-09-20 23:14:00,68.3,67.4,29.92,WNW,291,0.0,0.0,97,0.00,,,0.00,Wunderground v.1.15,2013-09-21 03:14:00,
2013-09-20 23:15:00,68.3,67.4,29.92,WNW,291,0.0,0.0,97,0.00,,,0.00,Wunderground v.1.15,2013-09-21 03:15:00,
2013-09-20 23:16:00,68.3,67.4,29.92,WNW,292,0.0,0.0,97,0.00,,,0.00,Wunderground v.1.15,2013-09-21 03:16:00,
2013-09-20 23:19:00,68.4,67.5,29.92,WNW,291,0.0,0.0,97,0.00,,,0.00,Wunderground v.1.15,2013-09-21 03:19:00,
2013-09-20 23:20:00,68.4,67.5,29.92,WNW,291,0.0,0.0,97,0.00,,,0.00,Wunderground v.1.15,2013-09-21 03:20:00,
2013-09-20 23:21:00,68.4,67.5,29.92,WNW,291,0.0,0.0,97,0.00,,,0.00,Wunderground v.1.15,2013-09-21 03:21:00,
2013-09-20 23:24:00,68.4,67.5,29.92,WNW,291,0.0,0.0,97,0.00,,,0.00,Wunderground v.1.15,2013-09-21 03:24:00,
2013-09-20 23:25:00,68.4,67.5,29.92,WNW,291,0.0,0.0,97,0.00,,,0.00,Wunderground v.1.15,2013-09-21 03:25:00,
2013-09-20 23:26:00,68.4,67.5,29.92,WNW,291,0.0,0.0,97,0.00,,,0.00,Wunderground v.1.15,2013-09-21 03:26:00,
2013-09-20 23:29:00,68.4,67.5,29.92,WNW,291,0.0,0.0,97,0.00,,,0.00,Wunderground v.1.15,2013-09-21 03:29:00,
2013-09-20 23:30:00,68.4,67.5,29.92,WNW,291,0.0,0.0,97,0.00,,,0.00,Wunderground v.1.15,2013-09-21 03:30:00,
2013-09-20 23:32:00,68.4,67.5,29.92,WNW,291,0.0,0.0,97,0.00,,,0.00,Wunderground v.1.15,2013-09-21 03:32:00,
2013-09-20 23:35:00,68.4,67.5,29.92,WNW,292,0.0,0.0,97,0.00,,,0.00,Wunderground v.1.15,2013-09-21 03:35:00,
2013-09-20 23:36:00,68.4,67.5,29.92,WNW,291,0.0,0.0,97,0.00,,,0.00,Wunderground v.1.15,2013-09-21 03:36:00,
2013-09-20 23:37:00,68.4,67.5,29.92,WNW,291,0.0,0.0,97,0.00,,,0.00,Wunderground v.1.15,2013-09-21 03:37:00,
2013-09-20 23:40:00,68.4,67.5,29.92,WNW,291,0.0,0.0,97,0.00,,,0.00,Wunderground v.1.15,2013-09-21 03:40:00,
2013-09-20 23:41:00,68.4,67.5,29.92,WNW,292,0.0,0.0,97,0.00,,,0.00,Wunderground v.1.15,2013-09-21 03:41:00,
2013-09-20 23:42:00,68.4,67.5,29.92,WNW,291,0.0,0.0,97,0.00,,,0.00,Wunderground v.1.15,2013-09-21 03:42:00,
2013-09-20 23:45:00,68.5,67.6,29.92,WNW,291,0.0,0.0,97,0.00,,,0.00,Wunderground v.1.15,2013-09-21 03:45:00,
2013-09-20 23:46:00,68.5,67.6,29.92,WNW,291,0.0,0.0,97,0.00,,,0.00,Wunderground v.1.15,2013-09-21 03:46:00,
2013-09-20 23:47:00,68.5,67.6,29.92,WNW,291,0.0,0.0,97,0.00,,,0.00,Wunderground v.1.15,2013-09-21 03:47:00,
2013-09-20 23:50:00,68.5,67.9,29.92,WNW,291,0.0,0.0,98,0.00,,,0.00,Wunderground v.1.15,2013-09-21 03:50:00,
2013-09-20 23:51:00,68.5,67.9,29.92,WNW,292,0.0,0.0,98,0.00,,,0.00,Wunderground v.1.15,2013-09-21 03:51:00,
2013-09-20 23:52:00,68.5,67.6,29.92,WNW,291,0.0,0.0,97,0.00,,,0.00,Wunderground v.1.15,2013-09-21 03:52:00,
2013-09-20 23:55:00,68.6,68.0,29.92,WNW,291,0.0,1.0,98,0.00,,,0.00,Wunderground v.1.15,2013-09-21 03:55:00,
2013-09-20 23:57:00,68.6,68.0,29.92,WNW,291,0.0,1.0,98,0.00,,,0.00,Wunderground v.1.15,2013-09-21 03:57:00,